<?xml version="1.0" encoding="UTF-8" standalone="no" ?>
<gpx xmlns="http://www.topografix.com/GPX/1/1" xmlns:xsi="http://www.w3.org/2001/XMLSchema-instance" xsi:schemaLocation="http://www.topografix.com/GPX/1/1 http://www.topografix.com/GPX/1/1/gpx.xsd" version="1.1" creator="VisuGPX - https://www.visugpx.com">
  <metadata>
    <name>SC2305_63km</name>
  </metadata>
  <trk>
    <name><![CDATA[froyennes]]></name>
    <trkseg>
      <trkpt lat="50.50335" lon="3.46236">
        <ele>20.505034</ele>
        <time>2021-05-21T21:13:26.313Z</time>
      </trkpt>
      <trkpt lat="50.50335" lon="3.46236">
        <ele>20.505034</ele>
        <time>2021-05-21T21:13:26.357Z</time>
      </trkpt>
      <trkpt lat="50.50345" lon="3.46155">
        <ele>20.505034</ele>
        <time>2021-05-21T21:13:33.346Z</time>
      </trkpt>
      <trkpt lat="50.50361" lon="3.46074">
        <ele>20.430073</ele>
        <time>2021-05-21T21:13:40.351Z</time>
      </trkpt>
      <trkpt lat="50.5041" lon="3.45851">
        <ele>19.730313</ele>
        <time>2021-05-21T21:14:00.424Z</time>
      </trkpt>
      <trkpt lat="50.50424" lon="3.45772">
        <ele>19.474961</ele>
        <time>2021-05-21T21:14:07.483Z</time>
      </trkpt>
      <trkpt lat="50.50433" lon="3.4572">
        <ele>19.302869</ele>
        <time>2021-05-21T21:14:12.176Z</time>
      </trkpt>
      <trkpt lat="50.50436" lon="3.45642">
        <ele>19.056693</ele>
        <time>2021-05-21T21:14:18.892Z</time>
      </trkpt>
      <trkpt lat="50.50437" lon="3.45631">
        <ele>19.021688</ele>
        <time>2021-05-21T21:14:19.706Z</time>
      </trkpt>
      <trkpt lat="50.5044" lon="3.45588">
        <ele>18.883273</ele>
        <time>2021-05-21T21:14:23.815Z</time>
      </trkpt>
      <trkpt lat="50.50441" lon="3.45573">
        <ele>18.834508</ele>
        <time>2021-05-21T21:14:24.967Z</time>
      </trkpt>
      <trkpt lat="50.50441" lon="3.45568">
        <ele>18.818215</ele>
        <time>2021-05-21T21:14:25.410Z</time>
      </trkpt>
      <trkpt lat="50.50443" lon="3.45552">
        <ele>18.762556</ele>
        <time>2021-05-21T21:14:26.765Z</time>
      </trkpt>
      <trkpt lat="50.50448" lon="3.45508">
        <ele>18.506614</ele>
        <time>2021-05-21T21:14:30.192Z</time>
      </trkpt>
      <trkpt lat="50.50447" lon="3.4549">
        <ele>18.398806</ele>
        <time>2021-05-21T21:14:31.626Z</time>
      </trkpt>
      <trkpt lat="50.50444" lon="3.45482">
        <ele>18.343782</ele>
        <time>2021-05-21T21:14:32.436Z</time>
      </trkpt>
      <trkpt lat="50.50448" lon="3.4547">
        <ele>18.265266</ele>
        <time>2021-05-21T21:14:33.418Z</time>
      </trkpt>
      <trkpt lat="50.50458" lon="3.45443">
        <ele>18.08223</ele>
        <time>2021-05-21T21:14:35.868Z</time>
      </trkpt>
      <trkpt lat="50.50468" lon="3.45372">
        <ele>17.659947</ele>
        <time>2021-05-21T21:14:41.556Z</time>
      </trkpt>
      <trkpt lat="50.50471" lon="3.45343">
        <ele>17.488313</ele>
        <time>2021-05-21T21:14:43.920Z</time>
      </trkpt>
      <trkpt lat="50.50473" lon="3.45332">
        <ele>17.42629</ele>
        <time>2021-05-21T21:14:44.724Z</time>
      </trkpt>
      <trkpt lat="50.50477" lon="3.45312">
        <ele>17.300933</ele>
        <time>2021-05-21T21:14:46.484Z</time>
      </trkpt>
      <trkpt lat="50.50513" lon="3.45201">
        <ele>16.749196</ele>
        <time>2021-05-21T21:14:56.402Z</time>
      </trkpt>
      <trkpt lat="50.50531" lon="3.45152">
        <ele>16.522226</ele>
        <time>2021-05-21T21:15:00.971Z</time>
      </trkpt>
      <trkpt lat="50.50539" lon="3.45133">
        <ele>16.429432</ele>
        <time>2021-05-21T21:15:02.781Z</time>
      </trkpt>
      <trkpt lat="50.50551" lon="3.45111">
        <ele>16.314982</ele>
        <time>2021-05-21T21:15:05.219Z</time>
      </trkpt>
      <trkpt lat="50.50599" lon="3.45026">
        <ele>15.962633</ele>
        <time>2021-05-21T21:15:15.192Z</time>
      </trkpt>
      <trkpt lat="50.50652" lon="3.44916">
        <ele>15.834823</ele>
        <time>2021-05-21T21:15:28.018Z</time>
      </trkpt>
      <trkpt lat="50.50661" lon="3.44894">
        <ele>15.810949</ele>
        <time>2021-05-21T21:15:30.281Z</time>
      </trkpt>
      <trkpt lat="50.50673" lon="3.44871">
        <ele>15.782971</ele>
        <time>2021-05-21T21:15:33.177Z</time>
      </trkpt>
      <trkpt lat="50.50707" lon="3.44823">
        <ele>15.7248</ele>
        <time>2021-05-21T21:15:39.646Z</time>
      </trkpt>
      <trkpt lat="50.51095" lon="3.44486">
        <ele>15.523336</ele>
        <time>2021-05-21T21:16:44.090Z</time>
      </trkpt>
      <trkpt lat="50.51116" lon="3.44468">
        <ele>15.538727</ele>
        <time>2021-05-21T21:16:47.903Z</time>
      </trkpt>
      <trkpt lat="50.51187" lon="3.44406">
        <ele>15.652357</ele>
        <time>2021-05-21T21:17:00.540Z</time>
      </trkpt>
      <trkpt lat="50.5119" lon="3.44403">
        <ele>15.669168</ele>
        <time>2021-05-21T21:17:01.334Z</time>
      </trkpt>
      <trkpt lat="50.51322" lon="3.4435">
        <ele>16.193288</ele>
        <time>2021-05-21T21:17:23.728Z</time>
      </trkpt>
      <trkpt lat="50.5134" lon="3.44349">
        <ele>16.265338</ele>
        <time>2021-05-21T21:17:26.924Z</time>
      </trkpt>
      <trkpt lat="50.51346" lon="3.4435">
        <ele>16.280855</ele>
        <time>2021-05-21T21:17:27.870Z</time>
      </trkpt>
      <trkpt lat="50.5139" lon="3.44363">
        <ele>16.36819</ele>
        <time>2021-05-21T21:17:35.157Z</time>
      </trkpt>
      <trkpt lat="50.51573" lon="3.44428">
        <ele>16.471433</ele>
        <time>2021-05-21T21:18:04.004Z</time>
      </trkpt>
      <trkpt lat="50.51599" lon="3.44445">
        <ele>16.394836</ele>
        <time>2021-05-21T21:18:07.787Z</time>
      </trkpt>
      <trkpt lat="50.51714" lon="3.44519">
        <ele>16.05743</ele>
        <time>2021-05-21T21:18:24.263Z</time>
      </trkpt>
      <trkpt lat="50.51727" lon="3.44527">
        <ele>16.021638</ele>
        <time>2021-05-21T21:18:26.004Z</time>
      </trkpt>
      <trkpt lat="50.51818" lon="3.44585">
        <ele>15.761041</ele>
        <time>2021-05-21T21:18:39.424Z</time>
      </trkpt>
      <trkpt lat="50.51845" lon="3.44602">
        <ele>15.685263</ele>
        <time>2021-05-21T21:18:43.748Z</time>
      </trkpt>
      <trkpt lat="50.5192" lon="3.44671">
        <ele>15.950889</ele>
        <time>2021-05-21T21:18:57.527Z</time>
      </trkpt>
      <trkpt lat="50.51925" lon="3.44675">
        <ele>15.973048</ele>
        <time>2021-05-21T21:18:58.539Z</time>
      </trkpt>
      <trkpt lat="50.51933" lon="3.44684">
        <ele>16.0121</ele>
        <time>2021-05-21T21:19:00.533Z</time>
      </trkpt>
      <trkpt lat="50.51953" lon="3.44702">
        <ele>16.098185</ele>
        <time>2021-05-21T21:19:04.078Z</time>
      </trkpt>
      <trkpt lat="50.51991" lon="3.44724">
        <ele>16.254691</ele>
        <time>2021-05-21T21:19:11.020Z</time>
      </trkpt>
      <trkpt lat="50.52029" lon="3.44725">
        <ele>16.381065</ele>
        <time>2021-05-21T21:19:17.439Z</time>
      </trkpt>
      <trkpt lat="50.52034" lon="3.44722">
        <ele>16.393202</ele>
        <time>2021-05-21T21:19:18.482Z</time>
      </trkpt>
      <trkpt lat="50.52072" lon="3.44707">
        <ele>16.4896</ele>
        <time>2021-05-21T21:19:25.086Z</time>
      </trkpt>
      <trkpt lat="50.52089" lon="3.44693">
        <ele>16.53809</ele>
        <time>2021-05-21T21:19:28.136Z</time>
      </trkpt>
      <trkpt lat="50.52092" lon="3.44691">
        <ele>16.544647</ele>
        <time>2021-05-21T21:19:28.554Z</time>
      </trkpt>
      <trkpt lat="50.52105" lon="3.44679">
        <ele>16.581735</ele>
        <time>2021-05-21T21:19:31.030Z</time>
      </trkpt>
      <trkpt lat="50.52116" lon="3.44669">
        <ele>16.614443</ele>
        <time>2021-05-21T21:19:33.061Z</time>
      </trkpt>
      <trkpt lat="50.52143" lon="3.44666">
        <ele>16.679883</ele>
        <time>2021-05-21T21:19:37.234Z</time>
      </trkpt>
      <trkpt lat="50.52154" lon="3.44675">
        <ele>16.711195</ele>
        <time>2021-05-21T21:19:39.098Z</time>
      </trkpt>
      <trkpt lat="50.52189" lon="3.44712">
        <ele>16.779826</ele>
        <time>2021-05-21T21:19:45.270Z</time>
      </trkpt>
      <trkpt lat="50.52222" lon="3.44745">
        <ele>16.741854</ele>
        <time>2021-05-21T21:19:50.856Z</time>
      </trkpt>
      <trkpt lat="50.52251" lon="3.448">
        <ele>16.6981</ele>
        <time>2021-05-21T21:19:57.368Z</time>
      </trkpt>
      <trkpt lat="50.52281" lon="3.44844">
        <ele>16.658326</ele>
        <time>2021-05-21T21:20:03.276Z</time>
      </trkpt>
      <trkpt lat="50.52311" lon="3.44887">
        <ele>16.619685</ele>
        <time>2021-05-21T21:20:09.117Z</time>
      </trkpt>
      <trkpt lat="50.52348" lon="3.44962">
        <ele>16.693021</ele>
        <time>2021-05-21T21:20:18.172Z</time>
      </trkpt>
      <trkpt lat="50.52354" lon="3.44967">
        <ele>16.702827</ele>
        <time>2021-05-21T21:20:19.254Z</time>
      </trkpt>
      <trkpt lat="50.52364" lon="3.44971">
        <ele>16.716399</ele>
        <time>2021-05-21T21:20:20.825Z</time>
      </trkpt>
      <trkpt lat="50.52397" lon="3.4497">
        <ele>16.760918</ele>
        <time>2021-05-21T21:20:26.065Z</time>
      </trkpt>
      <trkpt lat="50.52465" lon="3.44966">
        <ele>16.852155</ele>
        <time>2021-05-21T21:20:36.677Z</time>
      </trkpt>
      <trkpt lat="50.52496" lon="3.44968">
        <ele>16.899207</ele>
        <time>2021-05-21T21:20:41.586Z</time>
      </trkpt>
      <trkpt lat="50.52556" lon="3.44992">
        <ele>16.993153</ele>
        <time>2021-05-21T21:20:51.185Z</time>
      </trkpt>
      <trkpt lat="50.52569" lon="3.45007">
        <ele>17.018571</ele>
        <time>2021-05-21T21:20:53.577Z</time>
      </trkpt>
      <trkpt lat="50.52594" lon="3.45088">
        <ele>17.105545</ele>
        <time>2021-05-21T21:21:02.276Z</time>
      </trkpt>
      <trkpt lat="50.52608" lon="3.45115">
        <ele>17.151032</ele>
        <time>2021-05-21T21:21:05.509Z</time>
      </trkpt>
      <trkpt lat="50.52695" lon="3.45217">
        <ele>17.690389</ele>
        <time>2021-05-21T21:21:23.019Z</time>
      </trkpt>
      <trkpt lat="50.52698" lon="3.45225">
        <ele>17.722187</ele>
        <time>2021-05-21T21:21:24.187Z</time>
      </trkpt>
      <trkpt lat="50.52707" lon="3.45261">
        <ele>17.843382</ele>
        <time>2021-05-21T21:21:28.442Z</time>
      </trkpt>
      <trkpt lat="50.52719" lon="3.45338">
        <ele>18.142213</ele>
        <time>2021-05-21T21:21:37.626Z</time>
      </trkpt>
      <trkpt lat="50.52726" lon="3.45386">
        <ele>18.416506</ele>
        <time>2021-05-21T21:21:43.474Z</time>
      </trkpt>
      <trkpt lat="50.52741" lon="3.45438">
        <ele>18.734255</ele>
        <time>2021-05-21T21:21:50.394Z</time>
      </trkpt>
      <trkpt lat="50.52758" lon="3.45546">
        <ele>19.351322</ele>
        <time>2021-05-21T21:22:03.573Z</time>
      </trkpt>
      <trkpt lat="50.52769" lon="3.45601">
        <ele>19.654605</ele>
        <time>2021-05-21T21:22:10.102Z</time>
      </trkpt>
      <trkpt lat="50.52802" lon="3.4571">
        <ele>20.190873</ele>
        <time>2021-05-21T21:22:23.648Z</time>
      </trkpt>
      <trkpt lat="50.52899" lon="3.46191">
        <ele>22.663107</ele>
        <time>2021-05-21T21:23:19.855Z</time>
      </trkpt>
      <trkpt lat="50.52939" lon="3.46351">
        <ele>23.957303</ele>
        <time>2021-05-21T21:23:42.201Z</time>
      </trkpt>
      <trkpt lat="50.52951" lon="3.46484">
        <ele>25.071672</ele>
        <time>2021-05-21T21:23:59.838Z</time>
      </trkpt>
      <trkpt lat="50.53003" lon="3.46805">
        <ele>27.609594</ele>
        <time>2021-05-21T21:24:42.330Z</time>
      </trkpt>
      <trkpt lat="50.53008" lon="3.46817">
        <ele>27.699927</ele>
        <time>2021-05-21T21:24:44.037Z</time>
      </trkpt>
      <trkpt lat="50.53012" lon="3.46822">
        <ele>27.747762</ele>
        <time>2021-05-21T21:24:44.995Z</time>
      </trkpt>
      <trkpt lat="50.53018" lon="3.46828">
        <ele>27.825735</ele>
        <time>2021-05-21T21:24:46.481Z</time>
      </trkpt>
      <trkpt lat="50.53025" lon="3.46829">
        <ele>27.895141</ele>
        <time>2021-05-21T21:24:48.245Z</time>
      </trkpt>
      <trkpt lat="50.53175" lon="3.46773">
        <ele>27.95588</ele>
        <time>2021-05-21T21:25:13.233Z</time>
      </trkpt>
      <trkpt lat="50.53195" lon="3.46763">
        <ele>27.836387</ele>
        <time>2021-05-21T21:25:16.133Z</time>
      </trkpt>
      <trkpt lat="50.532" lon="3.46759">
        <ele>27.805091</ele>
        <time>2021-05-21T21:25:16.639Z</time>
      </trkpt>
      <trkpt lat="50.53267" lon="3.46704">
        <ele>27.23276</ele>
        <time>2021-05-21T21:25:25.130Z</time>
      </trkpt>
      <trkpt lat="50.53356" lon="3.46634">
        <ele>25.823936</ele>
        <time>2021-05-21T21:25:36.207Z</time>
      </trkpt>
      <trkpt lat="50.5341" lon="3.46593">
        <ele>24.978732</ele>
        <time>2021-05-21T21:25:43.522Z</time>
      </trkpt>
      <trkpt lat="50.53601" lon="3.4645">
        <ele>24.315489</ele>
        <time>2021-05-21T21:26:14.958Z</time>
      </trkpt>
      <trkpt lat="50.53712" lon="3.46368">
        <ele>23.120409</ele>
        <time>2021-05-21T21:26:29.885Z</time>
      </trkpt>
      <trkpt lat="50.53812" lon="3.46292">
        <ele>21.715546</ele>
        <time>2021-05-21T21:26:42.407Z</time>
      </trkpt>
      <trkpt lat="50.53844" lon="3.46263">
        <ele>21.220395</ele>
        <time>2021-05-21T21:26:46.610Z</time>
      </trkpt>
      <trkpt lat="50.53856" lon="3.46244">
        <ele>20.98386</ele>
        <time>2021-05-21T21:26:48.693Z</time>
      </trkpt>
      <trkpt lat="50.53878" lon="3.46181">
        <ele>20.382039</ele>
        <time>2021-05-21T21:26:54.161Z</time>
      </trkpt>
      <trkpt lat="50.5388" lon="3.46164">
        <ele>20.340825</ele>
        <time>2021-05-21T21:26:55.500Z</time>
      </trkpt>
      <trkpt lat="50.53949" lon="3.45679">
        <ele>19.381956</ele>
        <time>2021-05-21T21:27:40.082Z</time>
      </trkpt>
      <trkpt lat="50.54021" lon="3.45177">
        <ele>18.504169</ele>
        <time>2021-05-21T21:28:25.535Z</time>
      </trkpt>
      <trkpt lat="50.5404" lon="3.45071">
        <ele>18.309048</ele>
        <time>2021-05-21T21:28:35.196Z</time>
      </trkpt>
      <trkpt lat="50.54079" lon="3.44862">
        <ele>17.813711</ele>
        <time>2021-05-21T21:28:54.843Z</time>
      </trkpt>
      <trkpt lat="50.54083" lon="3.44841">
        <ele>17.763806</ele>
        <time>2021-05-21T21:28:56.678Z</time>
      </trkpt>
      <trkpt lat="50.54084" lon="3.44834">
        <ele>17.746672</ele>
        <time>2021-05-21T21:28:57.255Z</time>
      </trkpt>
      <trkpt lat="50.54089" lon="3.44817">
        <ele>17.703425</ele>
        <time>2021-05-21T21:28:58.721Z</time>
      </trkpt>
      <trkpt lat="50.54112" lon="3.44694">
        <ele>17.250244</ele>
        <time>2021-05-21T21:29:08.810Z</time>
      </trkpt>
      <trkpt lat="50.54114" lon="3.44687">
        <ele>17.224075</ele>
        <time>2021-05-21T21:29:09.487Z</time>
      </trkpt>
      <trkpt lat="50.54118" lon="3.44689">
        <ele>17.196316</ele>
        <time>2021-05-21T21:29:10.092Z</time>
      </trkpt>
      <trkpt lat="50.54123" lon="3.44691">
        <ele>17.167911</ele>
        <time>2021-05-21T21:29:10.726Z</time>
      </trkpt>
      <trkpt lat="50.54138" lon="3.44698">
        <ele>17.080706</ele>
        <time>2021-05-21T21:29:12.636Z</time>
      </trkpt>
      <trkpt lat="50.54141" lon="3.447">
        <ele>17.061801</ele>
        <time>2021-05-21T21:29:13.067Z</time>
      </trkpt>
      <trkpt lat="50.5416" lon="3.44707">
        <ele>16.949381</ele>
        <time>2021-05-21T21:29:15.844Z</time>
      </trkpt>
      <trkpt lat="50.5417" lon="3.44711">
        <ele>16.892753</ele>
        <time>2021-05-21T21:29:17.122Z</time>
      </trkpt>
      <trkpt lat="50.54179" lon="3.44715">
        <ele>16.838433</ele>
        <time>2021-05-21T21:29:18.458Z</time>
      </trkpt>
      <trkpt lat="50.54192" lon="3.4472">
        <ele>16.761519</ele>
        <time>2021-05-21T21:29:20.547Z</time>
      </trkpt>
      <trkpt lat="50.54222" lon="3.44731">
        <ele>16.710926</ele>
        <time>2021-05-21T21:29:24.831Z</time>
      </trkpt>
      <trkpt lat="50.54249" lon="3.44741">
        <ele>16.827868</ele>
        <time>2021-05-21T21:29:28.586Z</time>
      </trkpt>
      <trkpt lat="50.54262" lon="3.44741">
        <ele>16.882958</ele>
        <time>2021-05-21T21:29:30.636Z</time>
      </trkpt>
      <trkpt lat="50.5428" lon="3.44728">
        <ele>16.968227</ele>
        <time>2021-05-21T21:29:33.309Z</time>
      </trkpt>
      <trkpt lat="50.54288" lon="3.44721">
        <ele>17.006941</ele>
        <time>2021-05-21T21:29:34.874Z</time>
      </trkpt>
      <trkpt lat="50.54333" lon="3.44658">
        <ele>17.26046</ele>
        <time>2021-05-21T21:29:45.569Z</time>
      </trkpt>
      <trkpt lat="50.54389" lon="3.44586">
        <ele>17.630734</ele>
        <time>2021-05-21T21:29:59.603Z</time>
      </trkpt>
      <trkpt lat="50.54403" lon="3.4458">
        <ele>17.714572</ele>
        <time>2021-05-21T21:30:02.434Z</time>
      </trkpt>
      <trkpt lat="50.54414" lon="3.4458">
        <ele>17.779201</ele>
        <time>2021-05-21T21:30:04.356Z</time>
      </trkpt>
      <trkpt lat="50.54423" lon="3.4458">
        <ele>17.831907</ele>
        <time>2021-05-21T21:30:05.883Z</time>
      </trkpt>
      <trkpt lat="50.54433" lon="3.44583">
        <ele>17.892327</ele>
        <time>2021-05-21T21:30:07.684Z</time>
      </trkpt>
      <trkpt lat="50.54444" lon="3.44586">
        <ele>17.965061</ele>
        <time>2021-05-21T21:30:09.827Z</time>
      </trkpt>
      <trkpt lat="50.54443" lon="3.44602">
        <ele>18.026324</ele>
        <time>2021-05-21T21:30:12.099Z</time>
      </trkpt>
      <trkpt lat="50.54438" lon="3.44687">
        <ele>18.348162</ele>
        <time>2021-05-21T21:30:23.854Z</time>
      </trkpt>
      <trkpt lat="50.54433" lon="3.44779">
        <ele>18.539191</ele>
        <time>2021-05-21T21:30:36.171Z</time>
      </trkpt>
      <trkpt lat="50.54443" lon="3.44924">
        <ele>18.659699</ele>
        <time>2021-05-21T21:30:54.604Z</time>
      </trkpt>
      <trkpt lat="50.54452" lon="3.44978">
        <ele>18.70505</ele>
        <time>2021-05-21T21:31:01.757Z</time>
      </trkpt>
      <trkpt lat="50.54568" lon="3.45465">
        <ele>20.826847</ele>
        <time>2021-05-21T21:32:17.990Z</time>
      </trkpt>
      <trkpt lat="50.54574" lon="3.45481">
        <ele>20.908765</ele>
        <time>2021-05-21T21:32:20.869Z</time>
      </trkpt>
      <trkpt lat="50.5458" lon="3.45499">
        <ele>21.004021</ele>
        <time>2021-05-21T21:32:24.145Z</time>
      </trkpt>
      <trkpt lat="50.54755" lon="3.46215">
        <ele>23.16506</ele>
        <time>2021-05-21T21:34:13.371Z</time>
      </trkpt>
      <trkpt lat="50.54762" lon="3.4624">
        <ele>23.16974</ele>
        <time>2021-05-21T21:34:16.485Z</time>
      </trkpt>
      <trkpt lat="50.54767" lon="3.46264">
        <ele>23.174186</ele>
        <time>2021-05-21T21:34:19.739Z</time>
      </trkpt>
      <trkpt lat="50.54814" lon="3.46462">
        <ele>22.748204</ele>
        <time>2021-05-21T21:34:43.346Z</time>
      </trkpt>
      <trkpt lat="50.5482" lon="3.46483">
        <ele>22.680217</ele>
        <time>2021-05-21T21:34:46.018Z</time>
      </trkpt>
      <trkpt lat="50.54832" lon="3.46526">
        <ele>22.539163</ele>
        <time>2021-05-21T21:34:51.690Z</time>
      </trkpt>
      <trkpt lat="50.54994" lon="3.47188">
        <ele>23.519177</ele>
        <time>2021-05-21T21:36:27.782Z</time>
      </trkpt>
      <trkpt lat="50.54994" lon="3.47188">
        <ele>23.520751</ele>
        <time>2021-05-21T21:36:28.123Z</time>
      </trkpt>
      <trkpt lat="50.55009" lon="3.47249">
        <ele>23.759393</ele>
        <time>2021-05-21T21:36:37.408Z</time>
      </trkpt>
      <trkpt lat="50.55022" lon="3.47297">
        <ele>23.948706</ele>
        <time>2021-05-21T21:36:45.002Z</time>
      </trkpt>
      <trkpt lat="50.55199" lon="3.4802">
        <ele>26.610181</ele>
        <time>2021-05-21T21:38:34.965Z</time>
      </trkpt>
      <trkpt lat="50.55201" lon="3.48028">
        <ele>26.644362</ele>
        <time>2021-05-21T21:38:36.264Z</time>
      </trkpt>
      <trkpt lat="50.55205" lon="3.4802">
        <ele>26.684274</ele>
        <time>2021-05-21T21:38:37.313Z</time>
      </trkpt>
      <trkpt lat="50.5521" lon="3.48008">
        <ele>26.742555</ele>
        <time>2021-05-21T21:38:38.843Z</time>
      </trkpt>
      <trkpt lat="50.55261" lon="3.47984">
        <ele>27.090998</ele>
        <time>2021-05-21T21:38:48.113Z</time>
      </trkpt>
      <trkpt lat="50.55426" lon="3.47881">
        <ele>28.772944</ele>
        <time>2021-05-21T21:39:20.870Z</time>
      </trkpt>
      <trkpt lat="50.55546" lon="3.47808">
        <ele>30.495801</ele>
        <time>2021-05-21T21:39:47.366Z</time>
      </trkpt>
      <trkpt lat="50.55556" lon="3.47802">
        <ele>30.649445</ele>
        <time>2021-05-21T21:39:49.756Z</time>
      </trkpt>
      <trkpt lat="50.55568" lon="3.47794">
        <ele>30.840091</ele>
        <time>2021-05-21T21:39:52.531Z</time>
      </trkpt>
      <trkpt lat="50.55636" lon="3.47763">
        <ele>31.771338</ele>
        <time>2021-05-21T21:40:07.751Z</time>
      </trkpt>
      <trkpt lat="50.55658" lon="3.47761">
        <ele>31.895376</ele>
        <time>2021-05-21T21:40:12.273Z</time>
      </trkpt>
      <trkpt lat="50.55681" lon="3.4776">
        <ele>32.026019</ele>
        <time>2021-05-21T21:40:16.487Z</time>
      </trkpt>
      <trkpt lat="50.55701" lon="3.47748">
        <ele>32.150221</ele>
        <time>2021-05-21T21:40:20.446Z</time>
      </trkpt>
      <trkpt lat="50.55728" lon="3.47699">
        <ele>32.384961</ele>
        <time>2021-05-21T21:40:26.889Z</time>
      </trkpt>
      <trkpt lat="50.55744" lon="3.47681">
        <ele>32.496377</ele>
        <time>2021-05-21T21:40:29.589Z</time>
      </trkpt>
      <trkpt lat="50.55747" lon="3.47679">
        <ele>32.513043</ele>
        <time>2021-05-21T21:40:30.215Z</time>
      </trkpt>
      <trkpt lat="50.55752" lon="3.47676">
        <ele>32.54775</ele>
        <time>2021-05-21T21:40:31.048Z</time>
      </trkpt>
      <trkpt lat="50.55759" lon="3.47674">
        <ele>32.585952</ele>
        <time>2021-05-21T21:40:31.991Z</time>
      </trkpt>
      <trkpt lat="50.55776" lon="3.47674">
        <ele>32.681194</ele>
        <time>2021-05-21T21:40:34.298Z</time>
      </trkpt>
      <trkpt lat="50.55831" lon="3.47675">
        <ele>32.801972</ele>
        <time>2021-05-21T21:40:42.552Z</time>
      </trkpt>
      <trkpt lat="50.55848" lon="3.47676">
        <ele>32.829553</ele>
        <time>2021-05-21T21:40:45.043Z</time>
      </trkpt>
      <trkpt lat="50.55867" lon="3.47685">
        <ele>32.860751</ele>
        <time>2021-05-21T21:40:47.997Z</time>
      </trkpt>
      <trkpt lat="50.55879" lon="3.47699">
        <ele>32.884793</ele>
        <time>2021-05-21T21:40:50.172Z</time>
      </trkpt>
      <trkpt lat="50.55894" lon="3.4773">
        <ele>32.923575</ele>
        <time>2021-05-21T21:40:53.936Z</time>
      </trkpt>
      <trkpt lat="50.55907" lon="3.47755">
        <ele>32.955502</ele>
        <time>2021-05-21T21:40:56.718Z</time>
      </trkpt>
      <trkpt lat="50.55911" lon="3.47761">
        <ele>32.963729</ele>
        <time>2021-05-21T21:40:57.416Z</time>
      </trkpt>
      <trkpt lat="50.55915" lon="3.47765">
        <ele>32.971062</ele>
        <time>2021-05-21T21:40:58.183Z</time>
      </trkpt>
      <trkpt lat="50.5592" lon="3.47766">
        <ele>32.979893</ele>
        <time>2021-05-21T21:40:59.198Z</time>
      </trkpt>
      <trkpt lat="50.56024" lon="3.47769">
        <ele>33.817724</ele>
        <time>2021-05-21T21:41:18.565Z</time>
      </trkpt>
      <trkpt lat="50.56079" lon="3.47789">
        <ele>34.360006</ele>
        <time>2021-05-21T21:41:29.817Z</time>
      </trkpt>
      <trkpt lat="50.56092" lon="3.47804">
        <ele>34.507972</ele>
        <time>2021-05-21T21:41:32.977Z</time>
      </trkpt>
      <trkpt lat="50.56104" lon="3.47783">
        <ele>34.680348</ele>
        <time>2021-05-21T21:41:36.133Z</time>
      </trkpt>
      <trkpt lat="50.56138" lon="3.47691">
        <ele>35.194772</ele>
        <time>2021-05-21T21:41:48.608Z</time>
      </trkpt>
      <trkpt lat="50.56142" lon="3.47684">
        <ele>35.23894</ele>
        <time>2021-05-21T21:41:49.623Z</time>
      </trkpt>
      <trkpt lat="50.5615" lon="3.4768">
        <ele>35.30237</ele>
        <time>2021-05-21T21:41:51.336Z</time>
      </trkpt>
      <trkpt lat="50.56158" lon="3.47679">
        <ele>35.355847</ele>
        <time>2021-05-21T21:41:52.722Z</time>
      </trkpt>
      <trkpt lat="50.56187" lon="3.47692">
        <ele>35.580036</ele>
        <time>2021-05-21T21:41:58.064Z</time>
      </trkpt>
      <trkpt lat="50.56193" lon="3.47696">
        <ele>35.633341</ele>
        <time>2021-05-21T21:41:59.407Z</time>
      </trkpt>
      <trkpt lat="50.5623" lon="3.47745">
        <ele>35.986701</ele>
        <time>2021-05-21T21:42:07.235Z</time>
      </trkpt>
      <trkpt lat="50.56236" lon="3.47754">
        <ele>36.05406</ele>
        <time>2021-05-21T21:42:08.737Z</time>
      </trkpt>
      <trkpt lat="50.5624" lon="3.47748">
        <ele>36.088521</ele>
        <time>2021-05-21T21:42:09.617Z</time>
      </trkpt>
      <trkpt lat="50.56298" lon="3.47689">
        <ele>36.525067</ele>
        <time>2021-05-21T21:42:21.342Z</time>
      </trkpt>
      <trkpt lat="50.56326" lon="3.47642">
        <ele>36.780281</ele>
        <time>2021-05-21T21:42:28.451Z</time>
      </trkpt>
      <trkpt lat="50.5639" lon="3.47615">
        <ele>37.194957</ele>
        <time>2021-05-21T21:42:40.136Z</time>
      </trkpt>
      <trkpt lat="50.56432" lon="3.47581">
        <ele>37.721141</ele>
        <time>2021-05-21T21:42:48.558Z</time>
      </trkpt>
      <trkpt lat="50.56483" lon="3.4754">
        <ele>38.367727</ele>
        <time>2021-05-21T21:42:59.508Z</time>
      </trkpt>
      <trkpt lat="50.56562" lon="3.47477">
        <ele>39.402661</ele>
        <time>2021-05-21T21:43:17.356Z</time>
      </trkpt>
      <trkpt lat="50.56576" lon="3.47466">
        <ele>39.653157</ele>
        <time>2021-05-21T21:43:21.214Z</time>
      </trkpt>
      <trkpt lat="50.56619" lon="3.47432">
        <ele>40.379402</ele>
        <time>2021-05-21T21:43:31.142Z</time>
      </trkpt>
      <trkpt lat="50.56634" lon="3.47422">
        <ele>40.639783</ele>
        <time>2021-05-21T21:43:34.635Z</time>
      </trkpt>
      <trkpt lat="50.56641" lon="3.47421">
        <ele>40.734504</ele>
        <time>2021-05-21T21:43:36.058Z</time>
      </trkpt>
      <trkpt lat="50.56648" lon="3.47418">
        <ele>40.845148</ele>
        <time>2021-05-21T21:43:37.634Z</time>
      </trkpt>
      <trkpt lat="50.56697" lon="3.47412">
        <ele>41.595188</ele>
        <time>2021-05-21T21:43:47.405Z</time>
      </trkpt>
      <trkpt lat="50.56701" lon="3.47411">
        <ele>41.662748</ele>
        <time>2021-05-21T21:43:48.504Z</time>
      </trkpt>
      <trkpt lat="50.56705" lon="3.47409">
        <ele>41.733287</ele>
        <time>2021-05-21T21:43:49.479Z</time>
      </trkpt>
      <trkpt lat="50.56717" lon="3.47403">
        <ele>41.917704</ele>
        <time>2021-05-21T21:43:52.184Z</time>
      </trkpt>
      <trkpt lat="50.56774" lon="3.47365">
        <ele>42.775243</ele>
        <time>2021-05-21T21:44:05.085Z</time>
      </trkpt>
      <trkpt lat="50.56807" lon="3.47489">
        <ele>43.945173</ele>
        <time>2021-05-21T21:44:22.617Z</time>
      </trkpt>
      <trkpt lat="50.56812" lon="3.47507">
        <ele>44.114727</ele>
        <time>2021-05-21T21:44:24.917Z</time>
      </trkpt>
      <trkpt lat="50.56815" lon="3.47518">
        <ele>44.225479</ele>
        <time>2021-05-21T21:44:26.326Z</time>
      </trkpt>
      <trkpt lat="50.5682" lon="3.47528">
        <ele>44.337035</ele>
        <time>2021-05-21T21:44:28.163Z</time>
      </trkpt>
      <trkpt lat="50.56838" lon="3.47544">
        <ele>44.560942</ele>
        <time>2021-05-21T21:44:32.006Z</time>
      </trkpt>
      <trkpt lat="50.56882" lon="3.47565">
        <ele>44.979713</ele>
        <time>2021-05-21T21:44:40.694Z</time>
      </trkpt>
      <trkpt lat="50.569" lon="3.47571">
        <ele>45.148899</ele>
        <time>2021-05-21T21:44:44.382Z</time>
      </trkpt>
      <trkpt lat="50.56943" lon="3.476">
        <ele>45.573714</ele>
        <time>2021-05-21T21:44:53.009Z</time>
      </trkpt>
      <trkpt lat="50.56963" lon="3.47614">
        <ele>45.772954</ele>
        <time>2021-05-21T21:44:57.263Z</time>
      </trkpt>
      <trkpt lat="50.57008" lon="3.47669">
        <ele>46.143861</ele>
        <time>2021-05-21T21:45:06.953Z</time>
      </trkpt>
      <trkpt lat="50.57079" lon="3.47757">
        <ele>46.377004</ele>
        <time>2021-05-21T21:45:21.161Z</time>
      </trkpt>
      <trkpt lat="50.57106" lon="3.47799">
        <ele>46.476363</ele>
        <time>2021-05-21T21:45:26.873Z</time>
      </trkpt>
      <trkpt lat="50.57133" lon="3.47873">
        <ele>46.677659</ele>
        <time>2021-05-21T21:45:34.828Z</time>
      </trkpt>
      <trkpt lat="50.57171" lon="3.48065">
        <ele>47.302355</ele>
        <time>2021-05-21T21:45:56.310Z</time>
      </trkpt>
      <trkpt lat="50.57175" lon="3.4809">
        <ele>47.381222</ele>
        <time>2021-05-21T21:45:59.008Z</time>
      </trkpt>
      <trkpt lat="50.57179" lon="3.48099">
        <ele>47.417418</ele>
        <time>2021-05-21T21:46:00.675Z</time>
      </trkpt>
      <trkpt lat="50.57191" lon="3.48156">
        <ele>47.827968</ele>
        <time>2021-05-21T21:46:07.924Z</time>
      </trkpt>
      <trkpt lat="50.57235" lon="3.48362">
        <ele>49.361513</ele>
        <time>2021-05-21T21:46:35.681Z</time>
      </trkpt>
      <trkpt lat="50.5724" lon="3.48391">
        <ele>49.476876</ele>
        <time>2021-05-21T21:46:39.209Z</time>
      </trkpt>
      <trkpt lat="50.57246" lon="3.48417">
        <ele>49.537736</ele>
        <time>2021-05-21T21:46:42.181Z</time>
      </trkpt>
      <trkpt lat="50.57252" lon="3.48448">
        <ele>49.610266</ele>
        <time>2021-05-21T21:46:45.810Z</time>
      </trkpt>
      <trkpt lat="50.57263" lon="3.48501">
        <ele>49.735059</ele>
        <time>2021-05-21T21:46:51.625Z</time>
      </trkpt>
      <trkpt lat="50.57284" lon="3.48598">
        <ele>49.961214</ele>
        <time>2021-05-21T21:47:01.384Z</time>
      </trkpt>
      <trkpt lat="50.57308" lon="3.48672">
        <ele>50.195948</ele>
        <time>2021-05-21T21:47:08.969Z</time>
      </trkpt>
      <trkpt lat="50.57351" lon="3.48791">
        <ele>50.676297</ele>
        <time>2021-05-21T21:47:22.263Z</time>
      </trkpt>
      <trkpt lat="50.57355" lon="3.4881">
        <ele>50.746227</ele>
        <time>2021-05-21T21:47:24.403Z</time>
      </trkpt>
      <trkpt lat="50.57338" lon="3.48512">
        <ele>53.293859</ele>
        <time>2021-05-21T21:48:04.130Z</time>
      </trkpt>
      <trkpt lat="50.57343" lon="3.48486">
        <ele>53.587962</ele>
        <time>2021-05-21T21:48:08.253Z</time>
      </trkpt>
      <trkpt lat="50.57368" lon="3.48467">
        <ele>54.058333</ele>
        <time>2021-05-21T21:48:14.871Z</time>
      </trkpt>
      <trkpt lat="50.57614" lon="3.48354">
        <ele>59.621813</ele>
        <time>2021-05-21T21:49:15.971Z</time>
      </trkpt>
      <trkpt lat="50.57828" lon="3.48274">
        <ele>63.274373</ele>
        <time>2021-05-21T21:50:04.983Z</time>
      </trkpt>
      <trkpt lat="50.57835" lon="3.48271">
        <ele>63.369226</ele>
        <time>2021-05-21T21:50:06.659Z</time>
      </trkpt>
      <trkpt lat="50.57854" lon="3.48264">
        <ele>63.617997</ele>
        <time>2021-05-21T21:50:09.840Z</time>
      </trkpt>
      <trkpt lat="50.57903" lon="3.48269">
        <ele>64.000203</ele>
        <time>2021-05-21T21:50:18.109Z</time>
      </trkpt>
      <trkpt lat="50.57955" lon="3.48264">
        <ele>63.534785</ele>
        <time>2021-05-21T21:50:25.469Z</time>
      </trkpt>
      <trkpt lat="50.58057" lon="3.48288">
        <ele>62.608736</ele>
        <time>2021-05-21T21:50:37.623Z</time>
      </trkpt>
      <trkpt lat="50.58217" lon="3.48384">
        <ele>59.114342</ele>
        <time>2021-05-21T21:50:56.158Z</time>
      </trkpt>
      <trkpt lat="50.5826" lon="3.484">
        <ele>58.148241</ele>
        <time>2021-05-21T21:51:00.839Z</time>
      </trkpt>
      <trkpt lat="50.5853" lon="3.48404">
        <ele>52.613739</ele>
        <time>2021-05-21T21:51:30.050Z</time>
      </trkpt>
      <trkpt lat="50.58543" lon="3.4841">
        <ele>52.384803</ele>
        <time>2021-05-21T21:51:31.564Z</time>
      </trkpt>
      <trkpt lat="50.5859" lon="3.48481">
        <ele>51.38999</ele>
        <time>2021-05-21T21:51:39.499Z</time>
      </trkpt>
      <trkpt lat="50.58625" lon="3.48547">
        <ele>51.12297</ele>
        <time>2021-05-21T21:51:46.627Z</time>
      </trkpt>
      <trkpt lat="50.58634" lon="3.48585">
        <ele>50.995322</ele>
        <time>2021-05-21T21:51:50.213Z</time>
      </trkpt>
      <trkpt lat="50.58649" lon="3.48728">
        <ele>50.533423</ele>
        <time>2021-05-21T21:52:03.183Z</time>
      </trkpt>
      <trkpt lat="50.58665" lon="3.48769">
        <ele>50.305059</ele>
        <time>2021-05-21T21:52:07.432Z</time>
      </trkpt>
      <trkpt lat="50.58682" lon="3.48786">
        <ele>50.157371</ele>
        <time>2021-05-21T21:52:10.128Z</time>
      </trkpt>
      <trkpt lat="50.5871" lon="3.48796">
        <ele>49.947127</ele>
        <time>2021-05-21T21:52:13.791Z</time>
      </trkpt>
      <trkpt lat="50.5871" lon="3.48796">
        <ele>49.946389</ele>
        <time>2021-05-21T21:52:13.802Z</time>
      </trkpt>
      <trkpt lat="50.58803" lon="3.48807">
        <ele>49.259874</ele>
        <time>2021-05-21T21:52:25.282Z</time>
      </trkpt>
      <trkpt lat="50.58813" lon="3.48812">
        <ele>49.130675</ele>
        <time>2021-05-21T21:52:26.564Z</time>
      </trkpt>
      <trkpt lat="50.58835" lon="3.48839">
        <ele>48.761994</ele>
        <time>2021-05-21T21:52:29.845Z</time>
      </trkpt>
      <trkpt lat="50.58847" lon="3.48855">
        <ele>48.553043</ele>
        <time>2021-05-21T21:52:31.610Z</time>
      </trkpt>
      <trkpt lat="50.58859" lon="3.48834">
        <ele>48.31392</ele>
        <time>2021-05-21T21:52:34.650Z</time>
      </trkpt>
      <trkpt lat="50.58869" lon="3.48814">
        <ele>48.108716</ele>
        <time>2021-05-21T21:52:37.166Z</time>
      </trkpt>
      <trkpt lat="50.58876" lon="3.488">
        <ele>47.950096</ele>
        <time>2021-05-21T21:52:39.174Z</time>
      </trkpt>
      <trkpt lat="50.58898" lon="3.48765">
        <ele>47.537439</ele>
        <time>2021-05-21T21:52:44.372Z</time>
      </trkpt>
      <trkpt lat="50.58911" lon="3.48742">
        <ele>47.26769</ele>
        <time>2021-05-21T21:52:47.777Z</time>
      </trkpt>
      <trkpt lat="50.5893" lon="3.4871">
        <ele>46.907844</ele>
        <time>2021-05-21T21:52:52.232Z</time>
      </trkpt>
      <trkpt lat="50.58945" lon="3.48719">
        <ele>46.714661</ele>
        <time>2021-05-21T21:52:54.872Z</time>
      </trkpt>
      <trkpt lat="50.58963" lon="3.48724">
        <ele>46.502865</ele>
        <time>2021-05-21T21:52:57.979Z</time>
      </trkpt>
      <trkpt lat="50.5898" lon="3.48729">
        <ele>46.306752</ele>
        <time>2021-05-21T21:53:00.911Z</time>
      </trkpt>
      <trkpt lat="50.59022" lon="3.48704">
        <ele>45.80824</ele>
        <time>2021-05-21T21:53:08.293Z</time>
      </trkpt>
      <trkpt lat="50.59026" lon="3.48698">
        <ele>45.7446</ele>
        <time>2021-05-21T21:53:09.258Z</time>
      </trkpt>
      <trkpt lat="50.59035" lon="3.48686">
        <ele>45.611556</ele>
        <time>2021-05-21T21:53:11.245Z</time>
      </trkpt>
      <trkpt lat="50.59039" lon="3.48677">
        <ele>45.525779</ele>
        <time>2021-05-21T21:53:12.609Z</time>
      </trkpt>
      <trkpt lat="50.59042" lon="3.48656">
        <ele>45.375209</ele>
        <time>2021-05-21T21:53:14.868Z</time>
      </trkpt>
      <trkpt lat="50.59042" lon="3.48628">
        <ele>45.171318</ele>
        <time>2021-05-21T21:53:18.029Z</time>
      </trkpt>
      <trkpt lat="50.59039" lon="3.48507">
        <ele>44.429319</ele>
        <time>2021-05-21T21:53:32.037Z</time>
      </trkpt>
      <trkpt lat="50.59042" lon="3.48498">
        <ele>44.371956</ele>
        <time>2021-05-21T21:53:33.151Z</time>
      </trkpt>
      <trkpt lat="50.59071" lon="3.48457">
        <ele>44.038091</ele>
        <time>2021-05-21T21:53:40.210Z</time>
      </trkpt>
      <trkpt lat="50.59089" lon="3.4842">
        <ele>43.781164</ele>
        <time>2021-05-21T21:53:45.576Z</time>
      </trkpt>
      <trkpt lat="50.59102" lon="3.48367">
        <ele>43.474826</ele>
        <time>2021-05-21T21:53:51.983Z</time>
      </trkpt>
      <trkpt lat="50.5911" lon="3.48351">
        <ele>43.367476</ele>
        <time>2021-05-21T21:53:54.159Z</time>
      </trkpt>
      <trkpt lat="50.59122" lon="3.48337">
        <ele>43.207055</ele>
        <time>2021-05-21T21:53:56.966Z</time>
      </trkpt>
      <trkpt lat="50.5914" lon="3.48328">
        <ele>42.915088</ele>
        <time>2021-05-21T21:54:00.065Z</time>
      </trkpt>
      <trkpt lat="50.59243" lon="3.48273">
        <ele>41.230097</ele>
        <time>2021-05-21T21:54:17.737Z</time>
      </trkpt>
      <trkpt lat="50.59332" lon="3.48142">
        <ele>39.772808</ele>
        <time>2021-05-21T21:54:37.141Z</time>
      </trkpt>
      <trkpt lat="50.59369" lon="3.48082">
        <ele>39.26203</ele>
        <time>2021-05-21T21:54:46.582Z</time>
      </trkpt>
      <trkpt lat="50.59314" lon="3.48023">
        <ele>38.818383</ele>
        <time>2021-05-21T21:54:59.626Z</time>
      </trkpt>
      <trkpt lat="50.59304" lon="3.48014">
        <ele>38.884339</ele>
        <time>2021-05-21T21:55:02.559Z</time>
      </trkpt>
      <trkpt lat="50.59293" lon="3.48005">
        <ele>38.95405</ele>
        <time>2021-05-21T21:55:05.184Z</time>
      </trkpt>
      <trkpt lat="50.59219" lon="3.47937">
        <ele>39.42432</ele>
        <time>2021-05-21T21:55:25.335Z</time>
      </trkpt>
      <trkpt lat="50.59216" lon="3.4792">
        <ele>39.486619</ele>
        <time>2021-05-21T21:55:28.414Z</time>
      </trkpt>
      <trkpt lat="50.59222" lon="3.47886">
        <ele>39.610171</ele>
        <time>2021-05-21T21:55:33.433Z</time>
      </trkpt>
      <trkpt lat="50.59244" lon="3.47797">
        <ele>39.835257</ele>
        <time>2021-05-21T21:55:46.826Z</time>
      </trkpt>
      <trkpt lat="50.59268" lon="3.47728">
        <ele>39.960914</ele>
        <time>2021-05-21T21:55:56.941Z</time>
      </trkpt>
      <trkpt lat="50.59314" lon="3.47621">
        <ele>40.16838</ele>
        <time>2021-05-21T21:56:14.158Z</time>
      </trkpt>
      <trkpt lat="50.59327" lon="3.47572">
        <ele>40.246669</ele>
        <time>2021-05-21T21:56:21.381Z</time>
      </trkpt>
      <trkpt lat="50.59329" lon="3.47563">
        <ele>40.260591</ele>
        <time>2021-05-21T21:56:22.594Z</time>
      </trkpt>
      <trkpt lat="50.59341" lon="3.47519">
        <ele>40.327902</ele>
        <time>2021-05-21T21:56:29.142Z</time>
      </trkpt>
      <trkpt lat="50.59349" lon="3.47485">
        <ele>40.379377</ele>
        <time>2021-05-21T21:56:33.843Z</time>
      </trkpt>
      <trkpt lat="50.59356" lon="3.47475">
        <ele>40.400974</ele>
        <time>2021-05-21T21:56:36.170Z</time>
      </trkpt>
      <trkpt lat="50.59381" lon="3.47432">
        <ele>40.482816</ele>
        <time>2021-05-21T21:56:44.006Z</time>
      </trkpt>
      <trkpt lat="50.59381" lon="3.47432">
        <ele>40.482957</ele>
        <time>2021-05-21T21:56:44.013Z</time>
      </trkpt>
      <trkpt lat="50.59515" lon="3.47314">
        <ele>40.411533</ele>
        <time>2021-05-21T21:57:15.974Z</time>
      </trkpt>
      <trkpt lat="50.59576" lon="3.47279">
        <ele>40.295261</ele>
        <time>2021-05-21T21:57:27.979Z</time>
      </trkpt>
      <trkpt lat="50.59582" lon="3.47276">
        <ele>40.28298</ele>
        <time>2021-05-21T21:57:29.196Z</time>
      </trkpt>
      <trkpt lat="50.59587" lon="3.47275">
        <ele>40.274507</ele>
        <time>2021-05-21T21:57:30.018Z</time>
      </trkpt>
      <trkpt lat="50.59595" lon="3.47275">
        <ele>40.20146</ele>
        <time>2021-05-21T21:57:31.490Z</time>
      </trkpt>
      <trkpt lat="50.59637" lon="3.47245">
        <ele>39.71966</ele>
        <time>2021-05-21T21:57:39.611Z</time>
      </trkpt>
      <trkpt lat="50.59656" lon="3.47237">
        <ele>39.507787</ele>
        <time>2021-05-21T21:57:43.034Z</time>
      </trkpt>
      <trkpt lat="50.59662" lon="3.47236">
        <ele>39.440162</ele>
        <time>2021-05-21T21:57:44.189Z</time>
      </trkpt>
      <trkpt lat="50.59674" lon="3.47241">
        <ele>39.312123</ele>
        <time>2021-05-21T21:57:46.300Z</time>
      </trkpt>
      <trkpt lat="50.59694" lon="3.47157">
        <ele>38.71232</ele>
        <time>2021-05-21T21:57:56.044Z</time>
      </trkpt>
      <trkpt lat="50.59691" lon="3.47138">
        <ele>38.576914</ele>
        <time>2021-05-21T21:57:58.270Z</time>
      </trkpt>
      <trkpt lat="50.59693" lon="3.47125">
        <ele>38.491114</ele>
        <time>2021-05-21T21:57:59.629Z</time>
      </trkpt>
      <trkpt lat="50.5971" lon="3.47089">
        <ele>38.050908</ele>
        <time>2021-05-21T21:58:04.539Z</time>
      </trkpt>
      <trkpt lat="50.59713" lon="3.4708">
        <ele>37.944125</ele>
        <time>2021-05-21T21:58:05.534Z</time>
      </trkpt>
      <trkpt lat="50.59734" lon="3.46984">
        <ele>36.807219</ele>
        <time>2021-05-21T21:58:16.081Z</time>
      </trkpt>
      <trkpt lat="50.59748" lon="3.46916">
        <ele>35.995368</ele>
        <time>2021-05-21T21:58:23.393Z</time>
      </trkpt>
      <trkpt lat="50.59802" lon="3.4695">
        <ele>34.912065</ele>
        <time>2021-05-21T21:58:29.657Z</time>
      </trkpt>
      <trkpt lat="50.59859" lon="3.46986">
        <ele>33.546879</ele>
        <time>2021-05-21T21:58:36.171Z</time>
      </trkpt>
      <trkpt lat="50.59862" lon="3.46989">
        <ele>33.458155</ele>
        <time>2021-05-21T21:58:36.602Z</time>
      </trkpt>
      <trkpt lat="50.59938" lon="3.47033">
        <ele>31.65674</ele>
        <time>2021-05-21T21:58:45.276Z</time>
      </trkpt>
      <trkpt lat="50.59959" lon="3.47034">
        <ele>31.1991</ele>
        <time>2021-05-21T21:58:47.486Z</time>
      </trkpt>
      <trkpt lat="50.60084" lon="3.46996">
        <ele>28.748109</ele>
        <time>2021-05-21T21:59:01.687Z</time>
      </trkpt>
      <trkpt lat="50.60107" lon="3.47009">
        <ele>28.290155</ele>
        <time>2021-05-21T21:59:04.404Z</time>
      </trkpt>
      <trkpt lat="50.60118" lon="3.47021">
        <ele>28.036977</ele>
        <time>2021-05-21T21:59:05.924Z</time>
      </trkpt>
      <trkpt lat="50.60172" lon="3.47099">
        <ele>25.797413</ele>
        <time>2021-05-21T21:59:14.167Z</time>
      </trkpt>
      <trkpt lat="50.60256" lon="3.47185">
        <ele>22.421897</ele>
        <time>2021-05-21T21:59:23.923Z</time>
      </trkpt>
      <trkpt lat="50.60298" lon="3.47212">
        <ele>20.63361</ele>
        <time>2021-05-21T21:59:28.421Z</time>
      </trkpt>
      <trkpt lat="50.60304" lon="3.47216">
        <ele>20.329752</ele>
        <time>2021-05-21T21:59:29.046Z</time>
      </trkpt>
      <trkpt lat="50.6031" lon="3.47219">
        <ele>20.046469</ele>
        <time>2021-05-21T21:59:29.606Z</time>
      </trkpt>
      <trkpt lat="50.60354" lon="3.47232">
        <ele>18.075561</ele>
        <time>2021-05-21T21:59:34.010Z</time>
      </trkpt>
      <trkpt lat="50.60385" lon="3.47232">
        <ele>16.684972</ele>
        <time>2021-05-21T21:59:36.980Z</time>
      </trkpt>
      <trkpt lat="50.60496" lon="3.47205">
        <ele>11.947849</ele>
        <time>2021-05-21T21:59:47.663Z</time>
      </trkpt>
      <trkpt lat="50.60516" lon="3.47202">
        <ele>11.174299</ele>
        <time>2021-05-21T21:59:49.766Z</time>
      </trkpt>
      <trkpt lat="50.60535" lon="3.47205">
        <ele>10.447483</ele>
        <time>2021-05-21T21:59:51.527Z</time>
      </trkpt>
      <trkpt lat="50.60613" lon="3.47237">
        <ele>7.336973</ele>
        <time>2021-05-21T21:59:59.443Z</time>
      </trkpt>
      <trkpt lat="50.60758" lon="3.47353">
        <ele>4.744342</ele>
        <time>2021-05-21T22:00:16.816Z</time>
      </trkpt>
      <trkpt lat="50.60973" lon="3.47511">
        <ele>11.223835</ele>
        <time>2021-05-21T22:01:18.918Z</time>
      </trkpt>
      <trkpt lat="50.6098" lon="3.47517">
        <ele>11.776658</ele>
        <time>2021-05-21T22:01:22.529Z</time>
      </trkpt>
      <trkpt lat="50.61076" lon="3.47588">
        <ele>18.970092</ele>
        <time>2021-05-21T22:02:11.181Z</time>
      </trkpt>
      <trkpt lat="50.61119" lon="3.47603">
        <ele>21.869575</ele>
        <time>2021-05-21T22:02:32.353Z</time>
      </trkpt>
      <trkpt lat="50.61163" lon="3.47606">
        <ele>24.194261</ele>
        <time>2021-05-21T22:02:52.393Z</time>
      </trkpt>
      <trkpt lat="50.61212" lon="3.47601">
        <ele>26.747438</ele>
        <time>2021-05-21T22:03:11.400Z</time>
      </trkpt>
      <trkpt lat="50.6125" lon="3.47598">
        <ele>28.747947</ele>
        <time>2021-05-21T22:03:23.577Z</time>
      </trkpt>
      <trkpt lat="50.61314" lon="3.47606">
        <ele>31.307778</ele>
        <time>2021-05-21T22:03:40.576Z</time>
      </trkpt>
      <trkpt lat="50.61372" lon="3.47635">
        <ele>31.844446</ele>
        <time>2021-05-21T22:03:52.710Z</time>
      </trkpt>
      <trkpt lat="50.61462" lon="3.47684">
        <ele>32.688257</ele>
        <time>2021-05-21T22:04:07.121Z</time>
      </trkpt>
      <trkpt lat="50.61466" lon="3.47636">
        <ele>32.60908</ele>
        <time>2021-05-21T22:04:11.547Z</time>
      </trkpt>
      <trkpt lat="50.6152" lon="3.47351">
        <ele>31.506386</ele>
        <time>2021-05-21T22:04:36.282Z</time>
      </trkpt>
      <trkpt lat="50.6152" lon="3.4732">
        <ele>31.306699</ele>
        <time>2021-05-21T22:04:38.736Z</time>
      </trkpt>
      <trkpt lat="50.6153" lon="3.47319">
        <ele>31.206201</ele>
        <time>2021-05-21T22:04:39.870Z</time>
      </trkpt>
      <trkpt lat="50.61572" lon="3.47335">
        <ele>30.766145</ele>
        <time>2021-05-21T22:04:45.124Z</time>
      </trkpt>
      <trkpt lat="50.61588" lon="3.47334">
        <ele>30.602204</ele>
        <time>2021-05-21T22:04:47.080Z</time>
      </trkpt>
      <trkpt lat="50.61605" lon="3.47324">
        <ele>30.41728</ele>
        <time>2021-05-21T22:04:49.194Z</time>
      </trkpt>
      <trkpt lat="50.61623" lon="3.47297">
        <ele>30.163883</ele>
        <time>2021-05-21T22:04:52.166Z</time>
      </trkpt>
      <trkpt lat="50.61641" lon="3.47254">
        <ele>29.774758</ele>
        <time>2021-05-21T22:04:56.095Z</time>
      </trkpt>
      <trkpt lat="50.61646" lon="3.47231">
        <ele>29.577486</ele>
        <time>2021-05-21T22:04:57.846Z</time>
      </trkpt>
      <trkpt lat="50.61678" lon="3.47025">
        <ele>27.84897</ele>
        <time>2021-05-21T22:05:13.685Z</time>
      </trkpt>
      <trkpt lat="50.61682" lon="3.47002">
        <ele>27.671076</ele>
        <time>2021-05-21T22:05:15.578Z</time>
      </trkpt>
      <trkpt lat="50.61683" lon="3.46986">
        <ele>27.594174</ele>
        <time>2021-05-21T22:05:16.687Z</time>
      </trkpt>
      <trkpt lat="50.61698" lon="3.46879">
        <ele>27.040878</ele>
        <time>2021-05-21T22:05:25.092Z</time>
      </trkpt>
      <trkpt lat="50.61695" lon="3.46819">
        <ele>26.733714</ele>
        <time>2021-05-21T22:05:29.855Z</time>
      </trkpt>
      <trkpt lat="50.61704" lon="3.4682">
        <ele>26.666538</ele>
        <time>2021-05-21T22:05:30.871Z</time>
      </trkpt>
      <trkpt lat="50.61788" lon="3.46864">
        <ele>26.55723</ele>
        <time>2021-05-21T22:05:43.600Z</time>
      </trkpt>
      <trkpt lat="50.61843" lon="3.46944">
        <ele>27.089704</ele>
        <time>2021-05-21T22:05:56.197Z</time>
      </trkpt>
      <trkpt lat="50.61859" lon="3.46943">
        <ele>27.199277</ele>
        <time>2021-05-21T22:05:59.056Z</time>
      </trkpt>
      <trkpt lat="50.61859" lon="3.46946">
        <ele>27.211997</ele>
        <time>2021-05-21T22:05:59.565Z</time>
      </trkpt>
      <trkpt lat="50.6187" lon="3.46956">
        <ele>27.302802</ele>
        <time>2021-05-21T22:06:02.048Z</time>
      </trkpt>
      <trkpt lat="50.61872" lon="3.46955">
        <ele>27.32255</ele>
        <time>2021-05-21T22:06:02.664Z</time>
      </trkpt>
      <trkpt lat="50.61875" lon="3.46951">
        <ele>27.34468</ele>
        <time>2021-05-21T22:06:03.151Z</time>
      </trkpt>
      <trkpt lat="50.61874" lon="3.46933">
        <ele>27.42609</ele>
        <time>2021-05-21T22:06:05.385Z</time>
      </trkpt>
      <trkpt lat="50.61872" lon="3.4693">
        <ele>27.447607</ele>
        <time>2021-05-21T22:06:05.922Z</time>
      </trkpt>
      <trkpt lat="50.61874" lon="3.46919">
        <ele>27.503546</ele>
        <time>2021-05-21T22:06:07.855Z</time>
      </trkpt>
      <trkpt lat="50.61882" lon="3.46906">
        <ele>27.656107</ele>
        <time>2021-05-21T22:06:10.005Z</time>
      </trkpt>
      <trkpt lat="50.6192" lon="3.46906">
        <ele>28.667036</ele>
        <time>2021-05-21T22:06:18.762Z</time>
      </trkpt>
      <trkpt lat="50.61939" lon="3.46886">
        <ele>29.271259</ele>
        <time>2021-05-21T22:06:24.659Z</time>
      </trkpt>
      <trkpt lat="50.61966" lon="3.46753">
        <ele>31.633267</ele>
        <time>2021-05-21T22:06:48.211Z</time>
      </trkpt>
      <trkpt lat="50.62004" lon="3.46748">
        <ele>32.774284</ele>
        <time>2021-05-21T22:06:58.912Z</time>
      </trkpt>
      <trkpt lat="50.62098" lon="3.46721">
        <ele>36.239966</ele>
        <time>2021-05-21T22:07:27.202Z</time>
      </trkpt>
      <trkpt lat="50.62169" lon="3.46724">
        <ele>38.784825</ele>
        <time>2021-05-21T22:07:48.526Z</time>
      </trkpt>
      <trkpt lat="50.62205" lon="3.46737">
        <ele>40.087702</ele>
        <time>2021-05-21T22:07:59.418Z</time>
      </trkpt>
      <trkpt lat="50.62296" lon="3.468">
        <ele>43.49898</ele>
        <time>2021-05-21T22:08:27.907Z</time>
      </trkpt>
      <trkpt lat="50.62367" lon="3.46963">
        <ele>47.473532</ele>
        <time>2021-05-21T22:09:03.039Z</time>
      </trkpt>
      <trkpt lat="50.62395" lon="3.47004">
        <ele>48.598126</ele>
        <time>2021-05-21T22:09:13.241Z</time>
      </trkpt>
      <trkpt lat="50.6252" lon="3.47058">
        <ele>51.318087</ele>
        <time>2021-05-21T22:09:45.643Z</time>
      </trkpt>
      <trkpt lat="50.62553" lon="3.47075">
        <ele>51.772121</ele>
        <time>2021-05-21T22:09:52.890Z</time>
      </trkpt>
      <trkpt lat="50.62606" lon="3.47097">
        <ele>52.479363</ele>
        <time>2021-05-21T22:10:02.991Z</time>
      </trkpt>
      <trkpt lat="50.62837" lon="3.47257">
        <ele>50.431523</ele>
        <time>2021-05-21T22:10:34.350Z</time>
      </trkpt>
      <trkpt lat="50.62912" lon="3.47344">
        <ele>48.822042</ele>
        <time>2021-05-21T22:10:44.490Z</time>
      </trkpt>
      <trkpt lat="50.62937" lon="3.47366">
        <ele>48.330606</ele>
        <time>2021-05-21T22:10:47.548Z</time>
      </trkpt>
      <trkpt lat="50.62972" lon="3.47378">
        <ele>47.749894</ele>
        <time>2021-05-21T22:10:51.367Z</time>
      </trkpt>
      <trkpt lat="50.63104" lon="3.47372">
        <ele>45.619391</ele>
        <time>2021-05-21T22:11:06.305Z</time>
      </trkpt>
      <trkpt lat="50.63155" lon="3.47359">
        <ele>45.251294</ele>
        <time>2021-05-21T22:11:12.799Z</time>
      </trkpt>
      <trkpt lat="50.63333" lon="3.47252">
        <ele>45.383328</ele>
        <time>2021-05-21T22:11:41.741Z</time>
      </trkpt>
      <trkpt lat="50.63361" lon="3.47264">
        <ele>45.654104</ele>
        <time>2021-05-21T22:11:47.009Z</time>
      </trkpt>
      <trkpt lat="50.63544" lon="3.47492">
        <ele>48.788329</ele>
        <time>2021-05-21T22:12:33.758Z</time>
      </trkpt>
      <trkpt lat="50.63567" lon="3.47498">
        <ele>49.180532</ele>
        <time>2021-05-21T22:12:39.023Z</time>
      </trkpt>
      <trkpt lat="50.63834" lon="3.47456">
        <ele>56.611637</ele>
        <time>2021-05-21T22:13:49.744Z</time>
      </trkpt>
      <trkpt lat="50.63837" lon="3.47455">
        <ele>56.701854</ele>
        <time>2021-05-21T22:13:50.510Z</time>
      </trkpt>
      <trkpt lat="50.63873" lon="3.47451">
        <ele>57.857493</ele>
        <time>2021-05-21T22:14:00.542Z</time>
      </trkpt>
      <trkpt lat="50.63999" lon="3.47435">
        <ele>61.621314</ele>
        <time>2021-05-21T22:14:36.964Z</time>
      </trkpt>
      <trkpt lat="50.64087" lon="3.47424">
        <ele>63.818286</ele>
        <time>2021-05-21T22:14:58.959Z</time>
      </trkpt>
      <trkpt lat="50.64092" lon="3.47422">
        <ele>63.943239</ele>
        <time>2021-05-21T22:15:00.449Z</time>
      </trkpt>
      <trkpt lat="50.64102" lon="3.47418">
        <ele>64.211225</ele>
        <time>2021-05-21T22:15:02.751Z</time>
      </trkpt>
      <trkpt lat="50.64145" lon="3.47375">
        <ele>65.044204</ele>
        <time>2021-05-21T22:15:13.667Z</time>
      </trkpt>
      <trkpt lat="50.64203" lon="3.47276">
        <ele>65.113163</ele>
        <time>2021-05-21T22:15:28.256Z</time>
      </trkpt>
      <trkpt lat="50.64256" lon="3.47201">
        <ele>65.170522</ele>
        <time>2021-05-21T22:15:37.095Z</time>
      </trkpt>
      <trkpt lat="50.64257" lon="3.47199">
        <ele>65.172528</ele>
        <time>2021-05-21T22:15:37.336Z</time>
      </trkpt>
      <trkpt lat="50.64292" lon="3.47148">
        <ele>64.510877</ele>
        <time>2021-05-21T22:15:42.965Z</time>
      </trkpt>
      <trkpt lat="50.64375" lon="3.46964">
        <ele>62.413726</ele>
        <time>2021-05-21T22:15:59.145Z</time>
      </trkpt>
      <trkpt lat="50.64393" lon="3.46902">
        <ele>62.074055</ele>
        <time>2021-05-21T22:16:04.266Z</time>
      </trkpt>
      <trkpt lat="50.64394" lon="3.46898">
        <ele>62.051625</ele>
        <time>2021-05-21T22:16:04.752Z</time>
      </trkpt>
      <trkpt lat="50.64459" lon="3.4661">
        <ele>60.942571</ele>
        <time>2021-05-21T22:16:40.662Z</time>
      </trkpt>
      <trkpt lat="50.64537" lon="3.46302">
        <ele>60.70622</ele>
        <time>2021-05-21T22:17:23.932Z</time>
      </trkpt>
      <trkpt lat="50.64791" lon="3.45877">
        <ele>59.710292</ele>
        <time>2021-05-21T22:18:36.496Z</time>
      </trkpt>
      <trkpt lat="50.64868" lon="3.45742">
        <ele>58.467181</ele>
        <time>2021-05-21T22:18:55.996Z</time>
      </trkpt>
      <trkpt lat="50.64911" lon="3.45649">
        <ele>57.1232</ele>
        <time>2021-05-21T22:19:07.530Z</time>
      </trkpt>
      <trkpt lat="50.6492" lon="3.45606">
        <ele>56.596631</ele>
        <time>2021-05-21T22:19:12.010Z</time>
      </trkpt>
      <trkpt lat="50.64942" lon="3.455">
        <ele>55.159143</ele>
        <time>2021-05-21T22:19:23.119Z</time>
      </trkpt>
      <trkpt lat="50.64956" lon="3.45423">
        <ele>54.035639</ele>
        <time>2021-05-21T22:19:31.061Z</time>
      </trkpt>
      <trkpt lat="50.64968" lon="3.45377">
        <ele>53.342867</ele>
        <time>2021-05-21T22:19:35.882Z</time>
      </trkpt>
      <trkpt lat="50.65029" lon="3.45234">
        <ele>50.75095</ele>
        <time>2021-05-21T22:19:52.836Z</time>
      </trkpt>
      <trkpt lat="50.65049" lon="3.45189">
        <ele>49.866337</ele>
        <time>2021-05-21T22:19:58.131Z</time>
      </trkpt>
      <trkpt lat="50.65076" lon="3.45148">
        <ele>48.902019</ele>
        <time>2021-05-21T22:20:03.791Z</time>
      </trkpt>
      <trkpt lat="50.65093" lon="3.45133">
        <ele>48.400669</ele>
        <time>2021-05-21T22:20:06.805Z</time>
      </trkpt>
      <trkpt lat="50.65104" lon="3.45124">
        <ele>48.080828</ele>
        <time>2021-05-21T22:20:08.662Z</time>
      </trkpt>
      <trkpt lat="50.65111" lon="3.45119">
        <ele>47.901277</ele>
        <time>2021-05-21T22:20:09.639Z</time>
      </trkpt>
      <trkpt lat="50.65163" lon="3.45063">
        <ele>46.13919</ele>
        <time>2021-05-21T22:20:19.081Z</time>
      </trkpt>
      <trkpt lat="50.65194" lon="3.45042">
        <ele>45.151409</ele>
        <time>2021-05-21T22:20:24.169Z</time>
      </trkpt>
      <trkpt lat="50.65228" lon="3.4503">
        <ele>44.141372</ele>
        <time>2021-05-21T22:20:29.287Z</time>
      </trkpt>
      <trkpt lat="50.6529" lon="3.45037">
        <ele>42.307426</ele>
        <time>2021-05-21T22:20:38.468Z</time>
      </trkpt>
      <trkpt lat="50.65333" lon="3.45004">
        <ele>41.049761</ele>
        <time>2021-05-21T22:20:45.505Z</time>
      </trkpt>
      <trkpt lat="50.65375" lon="3.44965">
        <ele>39.791469</ele>
        <time>2021-05-21T22:20:52.724Z</time>
      </trkpt>
      <trkpt lat="50.65382" lon="3.44958">
        <ele>39.576216</ele>
        <time>2021-05-21T22:20:53.904Z</time>
      </trkpt>
      <trkpt lat="50.65387" lon="3.44944">
        <ele>39.324615</ele>
        <time>2021-05-21T22:20:55.440Z</time>
      </trkpt>
      <trkpt lat="50.65397" lon="3.44915">
        <ele>38.772552</ele>
        <time>2021-05-21T22:20:58.674Z</time>
      </trkpt>
      <trkpt lat="50.65404" lon="3.4488">
        <ele>38.162517</ele>
        <time>2021-05-21T22:21:02.359Z</time>
      </trkpt>
      <trkpt lat="50.65406" lon="3.44859">
        <ele>37.815015</ele>
        <time>2021-05-21T22:21:04.426Z</time>
      </trkpt>
      <trkpt lat="50.65403" lon="3.44837">
        <ele>37.463721</ele>
        <time>2021-05-21T22:21:06.724Z</time>
      </trkpt>
      <trkpt lat="50.65381" lon="3.44753">
        <ele>37.223517</ele>
        <time>2021-05-21T22:21:16.042Z</time>
      </trkpt>
      <trkpt lat="50.65375" lon="3.44729">
        <ele>37.154584</ele>
        <time>2021-05-21T22:21:18.902Z</time>
      </trkpt>
      <trkpt lat="50.65371" lon="3.44714">
        <ele>37.110015</ele>
        <time>2021-05-21T22:21:20.784Z</time>
      </trkpt>
      <trkpt lat="50.65341" lon="3.44598">
        <ele>36.778649</ele>
        <time>2021-05-21T22:21:37.649Z</time>
      </trkpt>
      <trkpt lat="50.65335" lon="3.44515">
        <ele>37.369865</ele>
        <time>2021-05-21T22:21:50.993Z</time>
      </trkpt>
      <trkpt lat="50.65318" lon="3.44453">
        <ele>38.129038</ele>
        <time>2021-05-21T22:22:02.781Z</time>
      </trkpt>
      <trkpt lat="50.65317" lon="3.44445">
        <ele>38.222068</ele>
        <time>2021-05-21T22:22:04.460Z</time>
      </trkpt>
      <trkpt lat="50.65318" lon="3.44433">
        <ele>38.358288</ele>
        <time>2021-05-21T22:22:06.622Z</time>
      </trkpt>
      <trkpt lat="50.65321" lon="3.44422">
        <ele>38.492978</ele>
        <time>2021-05-21T22:22:08.701Z</time>
      </trkpt>
      <trkpt lat="50.65411" lon="3.4435">
        <ele>40.368113</ele>
        <time>2021-05-21T22:22:37.381Z</time>
      </trkpt>
      <trkpt lat="50.655" lon="3.44193">
        <ele>43.39764</ele>
        <time>2021-05-21T22:23:16.853Z</time>
      </trkpt>
      <trkpt lat="50.65509" lon="3.44161">
        <ele>43.909198</ele>
        <time>2021-05-21T22:23:23.091Z</time>
      </trkpt>
      <trkpt lat="50.65513" lon="3.4415">
        <ele>44.126301</ele>
        <time>2021-05-21T22:23:25.679Z</time>
      </trkpt>
      <trkpt lat="50.65571" lon="3.43951">
        <ele>47.902111</ele>
        <time>2021-05-21T22:24:07.956Z</time>
      </trkpt>
      <trkpt lat="50.656" lon="3.4382">
        <ele>50.727308</ele>
        <time>2021-05-21T22:24:37.518Z</time>
      </trkpt>
      <trkpt lat="50.65616" lon="3.43725">
        <ele>52.962238</ele>
        <time>2021-05-21T22:25:00.483Z</time>
      </trkpt>
      <trkpt lat="50.6563" lon="3.43572">
        <ele>55.86314</ele>
        <time>2021-05-21T22:25:34.459Z</time>
      </trkpt>
      <trkpt lat="50.65633" lon="3.43469">
        <ele>56.997303</ele>
        <time>2021-05-21T22:25:53.405Z</time>
      </trkpt>
      <trkpt lat="50.65671" lon="3.43464">
        <ele>57.658556</ele>
        <time>2021-05-21T22:26:00.316Z</time>
      </trkpt>
      <trkpt lat="50.65701" lon="3.43459">
        <ele>58.194549</ele>
        <time>2021-05-21T22:26:05.575Z</time>
      </trkpt>
      <trkpt lat="50.65779" lon="3.43498">
        <ele>58.371688</ele>
        <time>2021-05-21T22:26:17.930Z</time>
      </trkpt>
      <trkpt lat="50.65801" lon="3.4351">
        <ele>58.352713</ele>
        <time>2021-05-21T22:26:20.787Z</time>
      </trkpt>
      <trkpt lat="50.65856" lon="3.43381">
        <ele>58.33275</ele>
        <time>2021-05-21T22:26:34.667Z</time>
      </trkpt>
      <trkpt lat="50.65884" lon="3.43243">
        <ele>58.797184</ele>
        <time>2021-05-21T22:26:49.951Z</time>
      </trkpt>
      <trkpt lat="50.65891" lon="3.43209">
        <ele>58.912486</ele>
        <time>2021-05-21T22:26:53.970Z</time>
      </trkpt>
      <trkpt lat="50.65893" lon="3.43186">
        <ele>58.986456</ele>
        <time>2021-05-21T22:26:56.573Z</time>
      </trkpt>
      <trkpt lat="50.65889" lon="3.43161">
        <ele>59.070208</ele>
        <time>2021-05-21T22:26:59.486Z</time>
      </trkpt>
      <trkpt lat="50.65858" lon="3.43129">
        <ele>59.385816</ele>
        <time>2021-05-21T22:27:06.105Z</time>
      </trkpt>
      <trkpt lat="50.65849" lon="3.43116">
        <ele>59.563292</ele>
        <time>2021-05-21T22:27:08.332Z</time>
      </trkpt>
      <trkpt lat="50.65845" lon="3.43095">
        <ele>59.769836</ele>
        <time>2021-05-21T22:27:10.894Z</time>
      </trkpt>
      <trkpt lat="50.65849" lon="3.42987">
        <ele>60.781878</ele>
        <time>2021-05-21T22:27:24.279Z</time>
      </trkpt>
      <trkpt lat="50.65837" lon="3.42872">
        <ele>61.898656</ele>
        <time>2021-05-21T22:27:40.443Z</time>
      </trkpt>
      <trkpt lat="50.65855" lon="3.42781">
        <ele>63.887151</ele>
        <time>2021-05-21T22:27:56.896Z</time>
      </trkpt>
      <trkpt lat="50.65858" lon="3.42659">
        <ele>66.442356</ele>
        <time>2021-05-21T22:28:19.126Z</time>
      </trkpt>
      <trkpt lat="50.65857" lon="3.42643">
        <ele>66.77889</ele>
        <time>2021-05-21T22:28:22.236Z</time>
      </trkpt>
      <trkpt lat="50.65855" lon="3.42604">
        <ele>67.591924</ele>
        <time>2021-05-21T22:28:29.486Z</time>
      </trkpt>
      <trkpt lat="50.65859" lon="3.42572">
        <ele>68.25624</ele>
        <time>2021-05-21T22:28:36.745Z</time>
      </trkpt>
      <trkpt lat="50.65913" lon="3.42417">
        <ele>71.888683</ele>
        <time>2021-05-21T22:29:10.905Z</time>
      </trkpt>
      <trkpt lat="50.65924" lon="3.42395">
        <ele>72.471918</ele>
        <time>2021-05-21T22:29:15.070Z</time>
      </trkpt>
      <trkpt lat="50.65936" lon="3.42386">
        <ele>72.91747</ele>
        <time>2021-05-21T22:29:18.905Z</time>
      </trkpt>
      <trkpt lat="50.65948" lon="3.42378">
        <ele>73.329865</ele>
        <time>2021-05-21T22:29:21.378Z</time>
      </trkpt>
      <trkpt lat="50.65983" lon="3.42289">
        <ele>73.543657</ele>
        <time>2021-05-21T22:29:34.382Z</time>
      </trkpt>
      <trkpt lat="50.66001" lon="3.42204">
        <ele>73.467851</ele>
        <time>2021-05-21T22:29:42.690Z</time>
      </trkpt>
      <trkpt lat="50.66045" lon="3.42089">
        <ele>73.043649</ele>
        <time>2021-05-21T22:29:52.391Z</time>
      </trkpt>
      <trkpt lat="50.66052" lon="3.42056">
        <ele>72.659792</ele>
        <time>2021-05-21T22:29:54.767Z</time>
      </trkpt>
      <trkpt lat="50.66056" lon="3.41981">
        <ele>71.819636</ele>
        <time>2021-05-21T22:30:00.038Z</time>
      </trkpt>
      <trkpt lat="50.66065" lon="3.41921">
        <ele>71.139994</ele>
        <time>2021-05-21T22:30:04.376Z</time>
      </trkpt>
      <trkpt lat="50.66078" lon="3.41847">
        <ele>70.282694</ele>
        <time>2021-05-21T22:30:09.962Z</time>
      </trkpt>
      <trkpt lat="50.66089" lon="3.41789">
        <ele>69.74621</ele>
        <time>2021-05-21T22:30:14.486Z</time>
      </trkpt>
      <trkpt lat="50.66111" lon="3.41619">
        <ele>68.231007</ele>
        <time>2021-05-21T22:30:27.413Z</time>
      </trkpt>
      <trkpt lat="50.66113" lon="3.41583">
        <ele>67.916409</ele>
        <time>2021-05-21T22:30:30.111Z</time>
      </trkpt>
      <trkpt lat="50.66109" lon="3.41556">
        <ele>67.641512</ele>
        <time>2021-05-21T22:30:32.342Z</time>
      </trkpt>
      <trkpt lat="50.66106" lon="3.4154">
        <ele>67.438528</ele>
        <time>2021-05-21T22:30:33.657Z</time>
      </trkpt>
      <trkpt lat="50.66104" lon="3.4153">
        <ele>67.321909</ele>
        <time>2021-05-21T22:30:34.316Z</time>
      </trkpt>
      <trkpt lat="50.66099" lon="3.41477">
        <ele>66.689328</ele>
        <time>2021-05-21T22:30:38.279Z</time>
      </trkpt>
      <trkpt lat="50.66117" lon="3.41165">
        <ele>62.572824</ele>
        <time>2021-05-21T22:30:59.971Z</time>
      </trkpt>
      <trkpt lat="50.66124" lon="3.41138">
        <ele>62.128966</ele>
        <time>2021-05-21T22:31:01.935Z</time>
      </trkpt>
      <trkpt lat="50.66164" lon="3.41039">
        <ele>60.335108</ele>
        <time>2021-05-21T22:31:09.862Z</time>
      </trkpt>
      <trkpt lat="50.66199" lon="3.40902">
        <ele>58.055369</ele>
        <time>2021-05-21T22:31:19.498Z</time>
      </trkpt>
      <trkpt lat="50.66225" lon="3.4084">
        <ele>56.901327</ele>
        <time>2021-05-21T22:31:24.496Z</time>
      </trkpt>
      <trkpt lat="50.66242" lon="3.40806">
        <ele>56.226915</ele>
        <time>2021-05-21T22:31:27.520Z</time>
      </trkpt>
      <trkpt lat="50.66244" lon="3.40791">
        <ele>55.977925</ele>
        <time>2021-05-21T22:31:28.620Z</time>
      </trkpt>
      <trkpt lat="50.6625" lon="3.40734">
        <ele>55.596289</ele>
        <time>2021-05-21T22:31:32.679Z</time>
      </trkpt>
      <trkpt lat="50.66252" lon="3.40626">
        <ele>55.365396</ele>
        <time>2021-05-21T22:31:40.803Z</time>
      </trkpt>
      <trkpt lat="50.66272" lon="3.40395">
        <ele>56.50558</ele>
        <time>2021-05-21T22:32:08.390Z</time>
      </trkpt>
      <trkpt lat="50.66274" lon="3.40382">
        <ele>56.71012</ele>
        <time>2021-05-21T22:32:10.625Z</time>
      </trkpt>
      <trkpt lat="50.66283" lon="3.40334">
        <ele>57.456877</ele>
        <time>2021-05-21T22:32:18.181Z</time>
      </trkpt>
      <trkpt lat="50.66306" lon="3.402">
        <ele>59.574479</ele>
        <time>2021-05-21T22:32:43.125Z</time>
      </trkpt>
      <trkpt lat="50.66308" lon="3.40169">
        <ele>60.07762</ele>
        <time>2021-05-21T22:32:49.485Z</time>
      </trkpt>
      <trkpt lat="50.66302" lon="3.40067">
        <ele>61.79117</ele>
        <time>2021-05-21T22:33:08.466Z</time>
      </trkpt>
      <trkpt lat="50.66305" lon="3.40039">
        <ele>62.262198</ele>
        <time>2021-05-21T22:33:12.342Z</time>
      </trkpt>
      <trkpt lat="50.66311" lon="3.40006">
        <ele>62.824415</ele>
        <time>2021-05-21T22:33:18.279Z</time>
      </trkpt>
      <trkpt lat="50.66323" lon="3.40004">
        <ele>63.117159</ele>
        <time>2021-05-21T22:33:20.120Z</time>
      </trkpt>
      <trkpt lat="50.66325" lon="3.39971">
        <ele>63.665452</ele>
        <time>2021-05-21T22:33:25.254Z</time>
      </trkpt>
      <trkpt lat="50.66334" lon="3.39868">
        <ele>63.333248</ele>
        <time>2021-05-21T22:33:36.903Z</time>
      </trkpt>
      <trkpt lat="50.66348" lon="3.39779">
        <ele>62.521806</ele>
        <time>2021-05-21T22:33:43.780Z</time>
      </trkpt>
      <trkpt lat="50.66367" lon="3.39696">
        <ele>61.752958</ele>
        <time>2021-05-21T22:33:49.381Z</time>
      </trkpt>
      <trkpt lat="50.66396" lon="3.39614">
        <ele>60.478145</ele>
        <time>2021-05-21T22:33:55.383Z</time>
      </trkpt>
      <trkpt lat="50.66406" lon="3.3959">
        <ele>60.03424</ele>
        <time>2021-05-21T22:33:57.163Z</time>
      </trkpt>
      <trkpt lat="50.66455" lon="3.39498">
        <ele>58.2089</ele>
        <time>2021-05-21T22:34:05.249Z</time>
      </trkpt>
      <trkpt lat="50.66464" lon="3.39479">
        <ele>57.845658</ele>
        <time>2021-05-21T22:34:07.170Z</time>
      </trkpt>
      <trkpt lat="50.66466" lon="3.39449">
        <ele>57.393887</ele>
        <time>2021-05-21T22:34:09.242Z</time>
      </trkpt>
      <trkpt lat="50.66462" lon="3.39399">
        <ele>57.48913</ele>
        <time>2021-05-21T22:34:13.247Z</time>
      </trkpt>
      <trkpt lat="50.66458" lon="3.3935">
        <ele>57.790292</ele>
        <time>2021-05-21T22:34:18.692Z</time>
      </trkpt>
      <trkpt lat="50.66454" lon="3.39289">
        <ele>58.164541</ele>
        <time>2021-05-21T22:34:26.965Z</time>
      </trkpt>
      <trkpt lat="50.6644" lon="3.39099">
        <ele>59.087175</ele>
        <time>2021-05-21T22:34:53.809Z</time>
      </trkpt>
      <trkpt lat="50.66439" lon="3.39053">
        <ele>59.177632</ele>
        <time>2021-05-21T22:34:59.879Z</time>
      </trkpt>
      <trkpt lat="50.66442" lon="3.39005">
        <ele>59.271508</ele>
        <time>2021-05-21T22:35:04.978Z</time>
      </trkpt>
      <trkpt lat="50.66459" lon="3.3884">
        <ele>59.02876</ele>
        <time>2021-05-21T22:35:18.755Z</time>
      </trkpt>
      <trkpt lat="50.66469" lon="3.3879">
        <ele>58.316467</ele>
        <time>2021-05-21T22:35:22.372Z</time>
      </trkpt>
      <trkpt lat="50.6648" lon="3.38763">
        <ele>57.872766</ele>
        <time>2021-05-21T22:35:24.571Z</time>
      </trkpt>
      <trkpt lat="50.6661" lon="3.38614">
        <ele>54.32068</ele>
        <time>2021-05-21T22:35:41.440Z</time>
      </trkpt>
      <trkpt lat="50.66677" lon="3.38538">
        <ele>52.433724</ele>
        <time>2021-05-21T22:35:50.180Z</time>
      </trkpt>
      <trkpt lat="50.66758" lon="3.38438">
        <ele>50.578497</ele>
        <time>2021-05-21T22:36:01.720Z</time>
      </trkpt>
      <trkpt lat="50.6685" lon="3.38266">
        <ele>48.441623</ele>
        <time>2021-05-21T22:36:18.712Z</time>
      </trkpt>
      <trkpt lat="50.66975" lon="3.38082">
        <ele>45.479418</ele>
        <time>2021-05-21T22:36:38.208Z</time>
      </trkpt>
      <trkpt lat="50.67009" lon="3.38033">
        <ele>44.170511</ele>
        <time>2021-05-21T22:36:43.118Z</time>
      </trkpt>
      <trkpt lat="50.6704" lon="3.37989">
        <ele>42.991473</ele>
        <time>2021-05-21T22:36:47.418Z</time>
      </trkpt>
      <trkpt lat="50.67053" lon="3.37967">
        <ele>42.458889</ele>
        <time>2021-05-21T22:36:49.355Z</time>
      </trkpt>
      <trkpt lat="50.6706" lon="3.37937">
        <ele>41.893119</ele>
        <time>2021-05-21T22:36:51.381Z</time>
      </trkpt>
      <trkpt lat="50.67077" lon="3.37694">
        <ele>36.646079</ele>
        <time>2021-05-21T22:37:06.794Z</time>
      </trkpt>
      <trkpt lat="50.67107" lon="3.3758">
        <ele>33.881094</ele>
        <time>2021-05-21T22:37:14.690Z</time>
      </trkpt>
      <trkpt lat="50.67116" lon="3.37558">
        <ele>33.312041</ele>
        <time>2021-05-21T22:37:16.329Z</time>
      </trkpt>
      <trkpt lat="50.67127" lon="3.3755">
        <ele>32.886068</ele>
        <time>2021-05-21T22:37:17.601Z</time>
      </trkpt>
      <trkpt lat="50.67146" lon="3.37537">
        <ele>32.203994</ele>
        <time>2021-05-21T22:37:19.612Z</time>
      </trkpt>
      <trkpt lat="50.67158" lon="3.37519">
        <ele>31.627802</ele>
        <time>2021-05-21T22:37:21.331Z</time>
      </trkpt>
      <trkpt lat="50.67164" lon="3.37497">
        <ele>31.113162</ele>
        <time>2021-05-21T22:37:22.841Z</time>
      </trkpt>
      <trkpt lat="50.67171" lon="3.37387">
        <ele>28.740066</ele>
        <time>2021-05-21T22:37:29.908Z</time>
      </trkpt>
      <trkpt lat="50.67171" lon="3.37387">
        <ele>28.729304</ele>
        <time>2021-05-21T22:37:29.936Z</time>
      </trkpt>
      <trkpt lat="50.6716" lon="3.37142">
        <ele>24.080255</ele>
        <time>2021-05-21T22:37:45.890Z</time>
      </trkpt>
      <trkpt lat="50.6716" lon="3.37073">
        <ele>22.880003</ele>
        <time>2021-05-21T22:37:50.388Z</time>
      </trkpt>
      <trkpt lat="50.67191" lon="3.36778">
        <ele>19.350748</ele>
        <time>2021-05-21T22:38:11.389Z</time>
      </trkpt>
      <trkpt lat="50.67253" lon="3.36526">
        <ele>18.197132</ele>
        <time>2021-05-21T22:38:34.495Z</time>
      </trkpt>
      <trkpt lat="50.67259" lon="3.36438">
        <ele>17.909799</ele>
        <time>2021-05-21T22:38:42.171Z</time>
      </trkpt>
      <trkpt lat="50.67256" lon="3.36409">
        <ele>17.813605</ele>
        <time>2021-05-21T22:38:44.683Z</time>
      </trkpt>
      <trkpt lat="50.6724" lon="3.36348">
        <ele>17.602855</ele>
        <time>2021-05-21T22:38:50.099Z</time>
      </trkpt>
      <trkpt lat="50.67178" lon="3.3639">
        <ele>17.322665</ele>
        <time>2021-05-21T22:38:58.692Z</time>
      </trkpt>
      <trkpt lat="50.67153" lon="3.36403">
        <ele>17.313184</ele>
        <time>2021-05-21T22:39:02.118Z</time>
      </trkpt>
      <trkpt lat="50.67051" lon="3.3646">
        <ele>17.274177</ele>
        <time>2021-05-21T22:39:17.342Z</time>
      </trkpt>
      <trkpt lat="50.66782" lon="3.36607">
        <ele>19.46461</ele>
        <time>2021-05-21T22:40:11.799Z</time>
      </trkpt>
      <trkpt lat="50.66763" lon="3.36615">
        <ele>19.56572</ele>
        <time>2021-05-21T22:40:15.119Z</time>
      </trkpt>
      <trkpt lat="50.66749" lon="3.36622">
        <ele>19.641044</ele>
        <time>2021-05-21T22:40:17.795Z</time>
      </trkpt>
      <trkpt lat="50.66716" lon="3.36633">
        <ele>19.812459</ele>
        <time>2021-05-21T22:40:23.176Z</time>
      </trkpt>
      <trkpt lat="50.66684" lon="3.3664">
        <ele>19.976392</ele>
        <time>2021-05-21T22:40:28.166Z</time>
      </trkpt>
      <trkpt lat="50.66647" lon="3.36637">
        <ele>19.721089</ele>
        <time>2021-05-21T22:40:33.207Z</time>
      </trkpt>
      <trkpt lat="50.66647" lon="3.36637">
        <ele>19.719216</ele>
        <time>2021-05-21T22:40:33.224Z</time>
      </trkpt>
      <trkpt lat="50.66602" lon="3.3663">
        <ele>19.293105</ele>
        <time>2021-05-21T22:40:38.970Z</time>
      </trkpt>
      <trkpt lat="50.66559" lon="3.36612">
        <ele>18.883208</ele>
        <time>2021-05-21T22:40:44.067Z</time>
      </trkpt>
      <trkpt lat="50.66532" lon="3.36598">
        <ele>18.609577</ele>
        <time>2021-05-21T22:40:47.485Z</time>
      </trkpt>
      <trkpt lat="50.66508" lon="3.3658">
        <ele>18.360678</ele>
        <time>2021-05-21T22:40:50.600Z</time>
      </trkpt>
      <trkpt lat="50.66491" lon="3.36566">
        <ele>18.219391</ele>
        <time>2021-05-21T22:40:52.886Z</time>
      </trkpt>
      <trkpt lat="50.66456" lon="3.36537">
        <ele>17.951994</ele>
        <time>2021-05-21T22:40:57.654Z</time>
      </trkpt>
      <trkpt lat="50.6641" lon="3.36496">
        <ele>17.596182</ele>
        <time>2021-05-21T22:41:04.368Z</time>
      </trkpt>
      <trkpt lat="50.66367" lon="3.36457">
        <ele>17.262851</ele>
        <time>2021-05-21T22:41:10.838Z</time>
      </trkpt>
      <trkpt lat="50.66341" lon="3.36435">
        <ele>17.136913</ele>
        <time>2021-05-21T22:41:15.303Z</time>
      </trkpt>
      <trkpt lat="50.66329" lon="3.36427">
        <ele>17.193007</ele>
        <time>2021-05-21T22:41:17.083Z</time>
      </trkpt>
      <trkpt lat="50.66327" lon="3.36425">
        <ele>17.205902</ele>
        <time>2021-05-21T22:41:17.667Z</time>
      </trkpt>
      <trkpt lat="50.663" lon="3.36413">
        <ele>17.330562</ele>
        <time>2021-05-21T22:41:22.175Z</time>
      </trkpt>
      <trkpt lat="50.66249" lon="3.36406">
        <ele>17.564485</ele>
        <time>2021-05-21T22:41:31.193Z</time>
      </trkpt>
      <trkpt lat="50.66186" lon="3.364">
        <ele>17.85058</ele>
        <time>2021-05-21T22:41:42.151Z</time>
      </trkpt>
      <trkpt lat="50.66156" lon="3.36399">
        <ele>17.956302</ele>
        <time>2021-05-21T22:41:47.473Z</time>
      </trkpt>
      <trkpt lat="50.66107" lon="3.36398">
        <ele>18.072215</ele>
        <time>2021-05-21T22:41:55.805Z</time>
      </trkpt>
      <trkpt lat="50.66073" lon="3.36398">
        <ele>18.152718</ele>
        <time>2021-05-21T22:42:01.403Z</time>
      </trkpt>
      <trkpt lat="50.65967" lon="3.36381">
        <ele>18.200119</ele>
        <time>2021-05-21T22:42:17.052Z</time>
      </trkpt>
      <trkpt lat="50.65791" lon="3.36316">
        <ele>17.166774</ele>
        <time>2021-05-21T22:42:39.994Z</time>
      </trkpt>
      <trkpt lat="50.65735" lon="3.36283">
        <ele>16.926339</ele>
        <time>2021-05-21T22:42:47.627Z</time>
      </trkpt>
      <trkpt lat="50.65666" lon="3.36246">
        <ele>16.63684</ele>
        <time>2021-05-21T22:42:57.601Z</time>
      </trkpt>
      <trkpt lat="50.65661" lon="3.36244">
        <ele>16.614483</ele>
        <time>2021-05-21T22:42:58.460Z</time>
      </trkpt>
      <trkpt lat="50.65588" lon="3.36219">
        <ele>17.119904</ele>
        <time>2021-05-21T22:43:10.031Z</time>
      </trkpt>
      <trkpt lat="50.65582" lon="3.36219">
        <ele>17.188268</ele>
        <time>2021-05-21T22:43:11.436Z</time>
      </trkpt>
      <trkpt lat="50.65516" lon="3.36221">
        <ele>17.84875</ele>
        <time>2021-05-21T22:43:23.837Z</time>
      </trkpt>
      <trkpt lat="50.65446" lon="3.3622">
        <ele>18.834348</ele>
        <time>2021-05-21T22:43:39.433Z</time>
      </trkpt>
      <trkpt lat="50.65438" lon="3.36219">
        <ele>19.018383</ele>
        <time>2021-05-21T22:43:41.435Z</time>
      </trkpt>
      <trkpt lat="50.65431" lon="3.36219">
        <ele>19.199997</ele>
        <time>2021-05-21T22:43:43.190Z</time>
      </trkpt>
      <trkpt lat="50.65387" lon="3.36219">
        <ele>20.250901</ele>
        <time>2021-05-21T22:43:53.680Z</time>
      </trkpt>
      <trkpt lat="50.65365" lon="3.3622">
        <ele>20.803202</ele>
        <time>2021-05-21T22:43:59.404Z</time>
      </trkpt>
      <trkpt lat="50.65317" lon="3.36221">
        <ele>21.950979</ele>
        <time>2021-05-21T22:44:11.319Z</time>
      </trkpt>
      <trkpt lat="50.65272" lon="3.36224">
        <ele>23.028067</ele>
        <time>2021-05-21T22:44:23.030Z</time>
      </trkpt>
      <trkpt lat="50.65208" lon="3.36251">
        <ele>24.543405</ele>
        <time>2021-05-21T22:44:40.078Z</time>
      </trkpt>
      <trkpt lat="50.6498" lon="3.36436">
        <ele>29.352002</ele>
        <time>2021-05-21T22:45:38.316Z</time>
      </trkpt>
      <trkpt lat="50.64938" lon="3.36499">
        <ele>29.510605</ele>
        <time>2021-05-21T22:45:47.774Z</time>
      </trkpt>
      <trkpt lat="50.64933" lon="3.3651">
        <ele>29.458533</ele>
        <time>2021-05-21T22:45:49.144Z</time>
      </trkpt>
      <trkpt lat="50.64931" lon="3.36505">
        <ele>29.432335</ele>
        <time>2021-05-21T22:45:49.782Z</time>
      </trkpt>
      <trkpt lat="50.64891" lon="3.3642">
        <ele>29.014785</ele>
        <time>2021-05-21T22:46:02.165Z</time>
      </trkpt>
      <trkpt lat="50.64866" lon="3.36345">
        <ele>28.677337</ele>
        <time>2021-05-21T22:46:11.147Z</time>
      </trkpt>
      <trkpt lat="50.64831" lon="3.36283">
        <ele>27.65509</ele>
        <time>2021-05-21T22:46:19.367Z</time>
      </trkpt>
      <trkpt lat="50.64785" lon="3.36217">
        <ele>26.19818</ele>
        <time>2021-05-21T22:46:29.165Z</time>
      </trkpt>
      <trkpt lat="50.64771" lon="3.36192">
        <ele>25.69828</ele>
        <time>2021-05-21T22:46:32.233Z</time>
      </trkpt>
      <trkpt lat="50.64768" lon="3.36176">
        <ele>25.455517</ele>
        <time>2021-05-21T22:46:33.936Z</time>
      </trkpt>
      <trkpt lat="50.64765" lon="3.36161">
        <ele>25.219155</ele>
        <time>2021-05-21T22:46:35.371Z</time>
      </trkpt>
      <trkpt lat="50.64765" lon="3.36139">
        <ele>24.890815</ele>
        <time>2021-05-21T22:46:37.437Z</time>
      </trkpt>
      <trkpt lat="50.64774" lon="3.36081">
        <ele>23.972431</ele>
        <time>2021-05-21T22:46:43.116Z</time>
      </trkpt>
      <trkpt lat="50.6476" lon="3.36005">
        <ele>22.67189</ele>
        <time>2021-05-21T22:46:50.904Z</time>
      </trkpt>
      <trkpt lat="50.64757" lon="3.35996">
        <ele>22.516608</ele>
        <time>2021-05-21T22:46:51.718Z</time>
      </trkpt>
      <trkpt lat="50.6474" lon="3.35948">
        <ele>21.616472</ele>
        <time>2021-05-21T22:46:57.008Z</time>
      </trkpt>
      <trkpt lat="50.64673" lon="3.35799">
        <ele>18.716036</ele>
        <time>2021-05-21T22:47:14.896Z</time>
      </trkpt>
      <trkpt lat="50.6462" lon="3.35728">
        <ele>17.016913</ele>
        <time>2021-05-21T22:47:25.625Z</time>
      </trkpt>
      <trkpt lat="50.64578" lon="3.35637">
        <ele>15.322409</ele>
        <time>2021-05-21T22:47:36.396Z</time>
      </trkpt>
      <trkpt lat="50.64573" lon="3.35625">
        <ele>15.157267</ele>
        <time>2021-05-21T22:47:37.705Z</time>
      </trkpt>
      <trkpt lat="50.64571" lon="3.35618">
        <ele>15.076021</ele>
        <time>2021-05-21T22:47:38.382Z</time>
      </trkpt>
      <trkpt lat="50.64571" lon="3.35611">
        <ele>14.989582</ele>
        <time>2021-05-21T22:47:39.054Z</time>
      </trkpt>
      <trkpt lat="50.64569" lon="3.35584">
        <ele>14.676401</ele>
        <time>2021-05-21T22:47:42.030Z</time>
      </trkpt>
      <trkpt lat="50.64569" lon="3.35563">
        <ele>14.439706</ele>
        <time>2021-05-21T22:47:43.950Z</time>
      </trkpt>
      <trkpt lat="50.6457" lon="3.35525">
        <ele>14.009583</ele>
        <time>2021-05-21T22:47:47.830Z</time>
      </trkpt>
      <trkpt lat="50.64571" lon="3.35492">
        <ele>13.629849</ele>
        <time>2021-05-21T22:47:50.978Z</time>
      </trkpt>
      <trkpt lat="50.64574" lon="3.35279">
        <ele>12.295866</ele>
        <time>2021-05-21T22:48:14.250Z</time>
      </trkpt>
      <trkpt lat="50.64564" lon="3.3513">
        <ele>12.516258</ele>
        <time>2021-05-21T22:48:36.130Z</time>
      </trkpt>
      <trkpt lat="50.64561" lon="3.35098">
        <ele>12.563372</ele>
        <time>2021-05-21T22:48:41.179Z</time>
      </trkpt>
      <trkpt lat="50.6455" lon="3.3499">
        <ele>13.481723</ele>
        <time>2021-05-21T22:48:58.667Z</time>
      </trkpt>
      <trkpt lat="50.64519" lon="3.34722">
        <ele>16.28298</ele>
        <time>2021-05-21T22:49:45.546Z</time>
      </trkpt>
      <trkpt lat="50.64509" lon="3.34626">
        <ele>17.436759</ele>
        <time>2021-05-21T22:50:02.848Z</time>
      </trkpt>
      <trkpt lat="50.64507" lon="3.34606">
        <ele>17.685637</ele>
        <time>2021-05-21T22:50:06.400Z</time>
      </trkpt>
      <trkpt lat="50.64505" lon="3.34574">
        <ele>18.06687</ele>
        <time>2021-05-21T22:50:12.518Z</time>
      </trkpt>
      <trkpt lat="50.64452" lon="3.3457">
        <ele>18.983438</ele>
        <time>2021-05-21T22:50:24.841Z</time>
      </trkpt>
      <trkpt lat="50.6441" lon="3.34564">
        <ele>19.57655</ele>
        <time>2021-05-21T22:50:33.195Z</time>
      </trkpt>
      <trkpt lat="50.64404" lon="3.34565">
        <ele>19.661567</ele>
        <time>2021-05-21T22:50:34.285Z</time>
      </trkpt>
      <trkpt lat="50.64401" lon="3.3457">
        <ele>19.72887</ele>
        <time>2021-05-21T22:50:35.654Z</time>
      </trkpt>
      <trkpt lat="50.64392" lon="3.34612">
        <ele>20.126867</ele>
        <time>2021-05-21T22:50:40.934Z</time>
      </trkpt>
      <trkpt lat="50.64348" lon="3.34656">
        <ele>20.874628</ele>
        <time>2021-05-21T22:50:51.637Z</time>
      </trkpt>
      <trkpt lat="50.64342" lon="3.34659">
        <ele>20.972656</ele>
        <time>2021-05-21T22:50:53.284Z</time>
      </trkpt>
      <trkpt lat="50.64324" lon="3.34641">
        <ele>21.264548</ele>
        <time>2021-05-21T22:50:57.091Z</time>
      </trkpt>
      <trkpt lat="50.64317" lon="3.3463">
        <ele>21.296646</ele>
        <time>2021-05-21T22:50:59.167Z</time>
      </trkpt>
      <trkpt lat="50.64308" lon="3.34614">
        <ele>21.344406</ele>
        <time>2021-05-21T22:51:01.384Z</time>
      </trkpt>
      <trkpt lat="50.64302" lon="3.34604">
        <ele>21.371465</ele>
        <time>2021-05-21T22:51:02.741Z</time>
      </trkpt>
      <trkpt lat="50.64298" lon="3.34599">
        <ele>21.388872</ele>
        <time>2021-05-21T22:51:04.034Z</time>
      </trkpt>
      <trkpt lat="50.64297" lon="3.34598">
        <ele>21.393139</ele>
        <time>2021-05-21T22:51:04.468Z</time>
      </trkpt>
      <trkpt lat="50.6429" lon="3.34586">
        <ele>21.428418</ele>
        <time>2021-05-21T22:51:06.483Z</time>
      </trkpt>
      <trkpt lat="50.64258" lon="3.34537">
        <ele>21.579232</ele>
        <time>2021-05-21T22:51:13.207Z</time>
      </trkpt>
      <trkpt lat="50.64216" lon="3.34472">
        <ele>21.77642</ele>
        <time>2021-05-21T22:51:21.691Z</time>
      </trkpt>
      <trkpt lat="50.64193" lon="3.34437">
        <ele>21.861469</ele>
        <time>2021-05-21T22:51:26.297Z</time>
      </trkpt>
      <trkpt lat="50.6419" lon="3.34433">
        <ele>21.855722</ele>
        <time>2021-05-21T22:51:26.874Z</time>
      </trkpt>
      <trkpt lat="50.64161" lon="3.34392">
        <ele>21.795532</ele>
        <time>2021-05-21T22:51:32.949Z</time>
      </trkpt>
      <trkpt lat="50.6412" lon="3.34341">
        <ele>21.716346</ele>
        <time>2021-05-21T22:51:40.503Z</time>
      </trkpt>
      <trkpt lat="50.6408" lon="3.3429">
        <ele>21.637875</ele>
        <time>2021-05-21T22:51:47.569Z</time>
      </trkpt>
      <trkpt lat="50.64019" lon="3.34218">
        <ele>21.28546</ele>
        <time>2021-05-21T22:51:58.334Z</time>
      </trkpt>
      <trkpt lat="50.63919" lon="3.34071">
        <ele>20.368832</ele>
        <time>2021-05-21T22:52:15.699Z</time>
      </trkpt>
      <trkpt lat="50.63914" lon="3.34067">
        <ele>20.297052</ele>
        <time>2021-05-21T22:52:16.308Z</time>
      </trkpt>
      <trkpt lat="50.63888" lon="3.34044">
        <ele>19.919684</ele>
        <time>2021-05-21T22:52:19.984Z</time>
      </trkpt>
      <trkpt lat="50.63886" lon="3.34048">
        <ele>19.873651</ele>
        <time>2021-05-21T22:52:20.525Z</time>
      </trkpt>
      <trkpt lat="50.63868" lon="3.34058">
        <ele>19.634314</ele>
        <time>2021-05-21T22:52:23.618Z</time>
      </trkpt>
      <trkpt lat="50.6386" lon="3.34072">
        <ele>19.481633</ele>
        <time>2021-05-21T22:52:25.844Z</time>
      </trkpt>
      <trkpt lat="50.63853" lon="3.34097">
        <ele>19.262524</ele>
        <time>2021-05-21T22:52:28.724Z</time>
      </trkpt>
      <trkpt lat="50.63854" lon="3.34211">
        <ele>18.340529</ele>
        <time>2021-05-21T22:52:40.600Z</time>
      </trkpt>
      <trkpt lat="50.6385" lon="3.34221">
        <ele>18.246291</ele>
        <time>2021-05-21T22:52:41.658Z</time>
      </trkpt>
      <trkpt lat="50.63743" lon="3.34309">
        <ele>17.175123</ele>
        <time>2021-05-21T22:53:03.044Z</time>
      </trkpt>
      <trkpt lat="50.63743" lon="3.34309">
        <ele>17.174108</ele>
        <time>2021-05-21T22:53:03.055Z</time>
      </trkpt>
      <trkpt lat="50.63708" lon="3.3435">
        <ele>16.803316</ele>
        <time>2021-05-21T22:53:10.612Z</time>
      </trkpt>
      <trkpt lat="50.63671" lon="3.34416">
        <ele>16.576555</ele>
        <time>2021-05-21T22:53:21.381Z</time>
      </trkpt>
      <trkpt lat="50.63666" lon="3.34431">
        <ele>16.5702</ele>
        <time>2021-05-21T22:53:23.488Z</time>
      </trkpt>
      <trkpt lat="50.63632" lon="3.34698">
        <ele>16.378649</ele>
        <time>2021-05-21T22:53:59.431Z</time>
      </trkpt>
      <trkpt lat="50.63577" lon="3.3483">
        <ele>16.066585</ele>
        <time>2021-05-21T22:54:18.325Z</time>
      </trkpt>
      <trkpt lat="50.63579" lon="3.34874">
        <ele>15.978113</ele>
        <time>2021-05-21T22:54:23.549Z</time>
      </trkpt>
      <trkpt lat="50.63582" lon="3.34881">
        <ele>15.961328</ele>
        <time>2021-05-21T22:54:24.482Z</time>
      </trkpt>
      <trkpt lat="50.63618" lon="3.34969">
        <ele>15.714442</ele>
        <time>2021-05-21T22:54:36.587Z</time>
      </trkpt>
      <trkpt lat="50.63644" lon="3.35032">
        <ele>15.530264</ele>
        <time>2021-05-21T22:54:45.358Z</time>
      </trkpt>
      <trkpt lat="50.63539" lon="3.3507">
        <ele>15.362248</ele>
        <time>2021-05-21T22:55:00.440Z</time>
      </trkpt>
      <trkpt lat="50.63314" lon="3.35183">
        <ele>16.415457</ele>
        <time>2021-05-21T22:55:41.124Z</time>
      </trkpt>
      <trkpt lat="50.63046" lon="3.35389">
        <ele>17.58313</ele>
        <time>2021-05-21T22:56:30.472Z</time>
      </trkpt>
      <trkpt lat="50.63043" lon="3.35388">
        <ele>17.586573</ele>
        <time>2021-05-21T22:56:30.766Z</time>
      </trkpt>
      <trkpt lat="50.63038" lon="3.35383">
        <ele>17.594685</ele>
        <time>2021-05-21T22:56:31.632Z</time>
      </trkpt>
      <trkpt lat="50.63026" lon="3.35372">
        <ele>17.61193</ele>
        <time>2021-05-21T22:56:33.821Z</time>
      </trkpt>
      <trkpt lat="50.63014" lon="3.35373">
        <ele>17.627195</ele>
        <time>2021-05-21T22:56:35.636Z</time>
      </trkpt>
      <trkpt lat="50.62972" lon="3.35453">
        <ele>17.710915</ele>
        <time>2021-05-21T22:56:45.373Z</time>
      </trkpt>
      <trkpt lat="50.62967" lon="3.35457">
        <ele>17.718269</ele>
        <time>2021-05-21T22:56:46.194Z</time>
      </trkpt>
      <trkpt lat="50.62956" lon="3.35466">
        <ele>17.734133</ele>
        <time>2021-05-21T22:56:48.517Z</time>
      </trkpt>
      <trkpt lat="50.62889" lon="3.35523">
        <ele>18.045924</ele>
        <time>2021-05-21T22:57:04.789Z</time>
      </trkpt>
      <trkpt lat="50.62721" lon="3.35617">
        <ele>19.119456</ele>
        <time>2021-05-21T22:57:46.814Z</time>
      </trkpt>
      <trkpt lat="50.62663" lon="3.3564">
        <ele>19.384581</ele>
        <time>2021-05-21T22:57:59.868Z</time>
      </trkpt>
      <trkpt lat="50.62652" lon="3.35646">
        <ele>19.436359</ele>
        <time>2021-05-21T22:58:02.371Z</time>
      </trkpt>
      <trkpt lat="50.62608" lon="3.35663">
        <ele>19.637932</ele>
        <time>2021-05-21T22:58:11.817Z</time>
      </trkpt>
      <trkpt lat="50.62589" lon="3.35671">
        <ele>19.726024</ele>
        <time>2021-05-21T22:58:15.803Z</time>
      </trkpt>
      <trkpt lat="50.62452" lon="3.35725">
        <ele>20.246038</ele>
        <time>2021-05-21T22:58:45.941Z</time>
      </trkpt>
      <trkpt lat="50.62436" lon="3.35726">
        <ele>20.305771</ele>
        <time>2021-05-21T22:58:49.686Z</time>
      </trkpt>
      <trkpt lat="50.62422" lon="3.35734">
        <ele>20.359189</ele>
        <time>2021-05-21T22:58:52.999Z</time>
      </trkpt>
      <trkpt lat="50.6238" lon="3.35769">
        <ele>20.669711</ele>
        <time>2021-05-21T22:59:01.370Z</time>
      </trkpt>
      <trkpt lat="50.62351" lon="3.35721">
        <ele>20.981293</ele>
        <time>2021-05-21T22:59:08.695Z</time>
      </trkpt>
      <trkpt lat="50.62327" lon="3.35674">
        <ele>21.268077</ele>
        <time>2021-05-21T22:59:15.885Z</time>
      </trkpt>
      <trkpt lat="50.62305" lon="3.35604">
        <ele>21.634774</ele>
        <time>2021-05-21T22:59:24.968Z</time>
      </trkpt>
      <trkpt lat="50.62279" lon="3.35537">
        <ele>21.915908</ele>
        <time>2021-05-21T22:59:33.465Z</time>
      </trkpt>
      <trkpt lat="50.62272" lon="3.3554">
        <ele>21.952444</ele>
        <time>2021-05-21T22:59:34.849Z</time>
      </trkpt>
      <trkpt lat="50.62271" lon="3.35541">
        <ele>21.956607</ele>
        <time>2021-05-21T22:59:34.989Z</time>
      </trkpt>
      <trkpt lat="50.62268" lon="3.35542">
        <ele>21.972861</ele>
        <time>2021-05-21T22:59:35.579Z</time>
      </trkpt>
      <trkpt lat="50.62265" lon="3.35543">
        <ele>21.990067</ele>
        <time>2021-05-21T22:59:36.384Z</time>
      </trkpt>
      <trkpt lat="50.622" lon="3.35523">
        <ele>22.308566</ele>
        <time>2021-05-21T22:59:47.283Z</time>
      </trkpt>
      <trkpt lat="50.62167" lon="3.35528">
        <ele>22.467666</ele>
        <time>2021-05-21T22:59:52.648Z</time>
      </trkpt>
      <trkpt lat="50.62146" lon="3.35539">
        <ele>22.577463</ele>
        <time>2021-05-21T22:59:56.251Z</time>
      </trkpt>
      <trkpt lat="50.62139" lon="3.35549">
        <ele>22.614845</ele>
        <time>2021-05-21T22:59:57.892Z</time>
      </trkpt>
      <trkpt lat="50.62129" lon="3.35564">
        <ele>22.591947</ele>
        <time>2021-05-21T23:00:00.917Z</time>
      </trkpt>
      <trkpt lat="50.62115" lon="3.35584">
        <ele>22.559733</ele>
        <time>2021-05-21T23:00:04.925Z</time>
      </trkpt>
      <trkpt lat="50.62105" lon="3.35594">
        <ele>22.539825</ele>
        <time>2021-05-21T23:00:07.421Z</time>
      </trkpt>
      <trkpt lat="50.62101" lon="3.35596">
        <ele>22.532607</ele>
        <time>2021-05-21T23:00:08.169Z</time>
      </trkpt>
      <trkpt lat="50.62083" lon="3.35603">
        <ele>22.499513</ele>
        <time>2021-05-21T23:00:12.226Z</time>
      </trkpt>
      <trkpt lat="50.6207" lon="3.35605">
        <ele>22.477281</ele>
        <time>2021-05-21T23:00:14.926Z</time>
      </trkpt>
      <trkpt lat="50.62049" lon="3.35646">
        <ele>22.41976</ele>
        <time>2021-05-21T23:00:21.733Z</time>
      </trkpt>
      <trkpt lat="50.61961" lon="3.35835">
        <ele>21.642324</ele>
        <time>2021-05-21T23:00:48.443Z</time>
      </trkpt>
      <trkpt lat="50.61953" lon="3.35839">
        <ele>21.57541</ele>
        <time>2021-05-21T23:00:49.975Z</time>
      </trkpt>
      <trkpt lat="50.61949" lon="3.35841">
        <ele>21.54586</ele>
        <time>2021-05-21T23:00:50.540Z</time>
      </trkpt>
      <trkpt lat="50.61946" lon="3.35841">
        <ele>21.518761</ele>
        <time>2021-05-21T23:00:51.144Z</time>
      </trkpt>
      <trkpt lat="50.61949" lon="3.35894">
        <ele>21.2498</ele>
        <time>2021-05-21T23:00:55.364Z</time>
      </trkpt>
      <trkpt lat="50.61946" lon="3.35955">
        <ele>20.944697</ele>
        <time>2021-05-21T23:01:00.145Z</time>
      </trkpt>
      <trkpt lat="50.61936" lon="3.36">
        <ele>20.747823</ele>
        <time>2021-05-21T23:01:03.958Z</time>
      </trkpt>
      <trkpt lat="50.61841" lon="3.36222">
        <ele>19.833252</ele>
        <time>2021-05-21T23:01:26.155Z</time>
      </trkpt>
      <trkpt lat="50.61836" lon="3.36235">
        <ele>19.848322</ele>
        <time>2021-05-21T23:01:27.575Z</time>
      </trkpt>
      <trkpt lat="50.61826" lon="3.36255">
        <ele>19.872433</ele>
        <time>2021-05-21T23:01:30.749Z</time>
      </trkpt>
      <trkpt lat="50.61822" lon="3.36268">
        <ele>19.88591</ele>
        <time>2021-05-21T23:01:32.591Z</time>
      </trkpt>
      <trkpt lat="50.61805" lon="3.36317">
        <ele>19.938671</ele>
        <time>2021-05-21T23:01:39.771Z</time>
      </trkpt>
      <trkpt lat="50.61789" lon="3.36358">
        <ele>19.984675</ele>
        <time>2021-05-21T23:01:46.143Z</time>
      </trkpt>
      <trkpt lat="50.61643" lon="3.367">
        <ele>21.190277</ele>
        <time>2021-05-21T23:02:45.283Z</time>
      </trkpt>
      <trkpt lat="50.61605" lon="3.36788">
        <ele>21.521006</ele>
        <time>2021-05-21T23:03:00.428Z</time>
      </trkpt>
      <trkpt lat="50.61581" lon="3.36843">
        <ele>21.730616</ele>
        <time>2021-05-21T23:03:09.952Z</time>
      </trkpt>
      <trkpt lat="50.61505" lon="3.37019">
        <ele>22.361787</ele>
        <time>2021-05-21T23:03:39.408Z</time>
      </trkpt>
      <trkpt lat="50.61505" lon="3.37019">
        <ele>22.361787</ele>
        <time>2021-05-21T23:03:39.435Z</time>
      </trkpt>
      <trkpt lat="50.61485" lon="3.36997">
        <ele>22.474182</ele>
        <time>2021-05-21T23:03:44.798Z</time>
      </trkpt>
      <trkpt lat="50.6146" lon="3.36987">
        <ele>22.588335</ele>
        <time>2021-05-21T23:03:50.386Z</time>
      </trkpt>
      <trkpt lat="50.61406" lon="3.36991">
        <ele>22.85577</ele>
        <time>2021-05-21T23:04:02.364Z</time>
      </trkpt>
      <trkpt lat="50.61383" lon="3.36997">
        <ele>23.058094</ele>
        <time>2021-05-21T23:04:07.634Z</time>
      </trkpt>
      <trkpt lat="50.61365" lon="3.37">
        <ele>23.225904</ele>
        <time>2021-05-21T23:04:12.071Z</time>
      </trkpt>
      <trkpt lat="50.61351" lon="3.36999">
        <ele>23.348995</ele>
        <time>2021-05-21T23:04:15.306Z</time>
      </trkpt>
      <trkpt lat="50.61331" lon="3.36992">
        <ele>23.52929</ele>
        <time>2021-05-21T23:04:20.095Z</time>
      </trkpt>
      <trkpt lat="50.61267" lon="3.36952">
        <ele>24.136893</ele>
        <time>2021-05-21T23:04:36.676Z</time>
      </trkpt>
      <trkpt lat="50.61154" lon="3.36877">
        <ele>25.406015</ele>
        <time>2021-05-21T23:05:07.266Z</time>
      </trkpt>
      <trkpt lat="50.61129" lon="3.36871">
        <ele>25.677294</ele>
        <time>2021-05-21T23:05:13.346Z</time>
      </trkpt>
      <trkpt lat="50.61116" lon="3.36867">
        <ele>25.825585</ele>
        <time>2021-05-21T23:05:16.689Z</time>
      </trkpt>
      <trkpt lat="50.61052" lon="3.36861">
        <ele>26.522643</ele>
        <time>2021-05-21T23:05:32.102Z</time>
      </trkpt>
      <trkpt lat="50.61033" lon="3.36919">
        <ele>26.971196</ele>
        <time>2021-05-21T23:05:42.008Z</time>
      </trkpt>
      <trkpt lat="50.60987" lon="3.37052">
        <ele>28.017765</ele>
        <time>2021-05-21T23:06:06.164Z</time>
      </trkpt>
      <trkpt lat="50.60983" lon="3.3705">
        <ele>28.053825</ele>
        <time>2021-05-21T23:06:07.061Z</time>
      </trkpt>
      <trkpt lat="50.6098" lon="3.37051">
        <ele>28.090743</ele>
        <time>2021-05-21T23:06:07.868Z</time>
      </trkpt>
      <trkpt lat="50.60977" lon="3.37053">
        <ele>28.125635</ele>
        <time>2021-05-21T23:06:08.583Z</time>
      </trkpt>
      <trkpt lat="50.60975" lon="3.37057">
        <ele>28.160824</ele>
        <time>2021-05-21T23:06:09.310Z</time>
      </trkpt>
      <trkpt lat="50.60951" lon="3.37047">
        <ele>28.471242</ele>
        <time>2021-05-21T23:06:15.515Z</time>
      </trkpt>
      <trkpt lat="50.60931" lon="3.37041">
        <ele>28.763436</ele>
        <time>2021-05-21T23:06:20.338Z</time>
      </trkpt>
      <trkpt lat="50.60914" lon="3.37036">
        <ele>29.016246</ele>
        <time>2021-05-21T23:06:24.964Z</time>
      </trkpt>
      <trkpt lat="50.60903" lon="3.37036">
        <ele>29.177825</ele>
        <time>2021-05-21T23:06:27.644Z</time>
      </trkpt>
      <trkpt lat="50.60877" lon="3.37037">
        <ele>29.559296</ele>
        <time>2021-05-21T23:06:34.516Z</time>
      </trkpt>
      <trkpt lat="50.60857" lon="3.3704">
        <ele>29.852426</ele>
        <time>2021-05-21T23:06:39.590Z</time>
      </trkpt>
      <trkpt lat="50.60842" lon="3.37044">
        <ele>30.075774</ele>
        <time>2021-05-21T23:06:43.808Z</time>
      </trkpt>
      <trkpt lat="50.60835" lon="3.37037">
        <ele>30.192516</ele>
        <time>2021-05-21T23:06:45.814Z</time>
      </trkpt>
      <trkpt lat="50.60818" lon="3.37041">
        <ele>30.439705</ele>
        <time>2021-05-21T23:06:50.399Z</time>
      </trkpt>
      <trkpt lat="50.60807" lon="3.37049">
        <ele>30.622778</ele>
        <time>2021-05-21T23:06:53.897Z</time>
      </trkpt>
      <trkpt lat="50.60775" lon="3.37055">
        <ele>31.133935</ele>
        <time>2021-05-21T23:07:02.547Z</time>
      </trkpt>
      <trkpt lat="50.60757" lon="3.37056">
        <ele>31.471529</ele>
        <time>2021-05-21T23:07:07.512Z</time>
      </trkpt>
      <trkpt lat="50.60713" lon="3.37055">
        <ele>32.279669</ele>
        <time>2021-05-21T23:07:19.563Z</time>
      </trkpt>
      <trkpt lat="50.6069" lon="3.37052">
        <ele>32.719732</ele>
        <time>2021-05-21T23:07:26.107Z</time>
      </trkpt>
      <trkpt lat="50.60672" lon="3.37054">
        <ele>33.050375</ele>
        <time>2021-05-21T23:07:31.071Z</time>
      </trkpt>
      <trkpt lat="50.60632" lon="3.37046">
        <ele>33.796725</ele>
        <time>2021-05-21T23:07:42.199Z</time>
      </trkpt>
      <trkpt lat="50.60603" lon="3.37039">
        <ele>34.342351</ele>
        <time>2021-05-21T23:07:50.438Z</time>
      </trkpt>
      <trkpt lat="50.60566" lon="3.37026">
        <ele>35.029493</ele>
        <time>2021-05-21T23:08:01.447Z</time>
      </trkpt>
      <trkpt lat="50.60454" lon="3.3699">
        <ele>37.088162</ele>
        <time>2021-05-21T23:08:32.686Z</time>
      </trkpt>
      <trkpt lat="50.60445" lon="3.36986">
        <ele>37.256255</ele>
        <time>2021-05-21T23:08:35.384Z</time>
      </trkpt>
      <trkpt lat="50.60445" lon="3.36969">
        <ele>37.454756</ele>
        <time>2021-05-21T23:08:37.628Z</time>
      </trkpt>
      <trkpt lat="50.60446" lon="3.36958">
        <ele>37.56352</ele>
        <time>2021-05-21T23:08:38.992Z</time>
      </trkpt>
      <trkpt lat="50.60441" lon="3.36956">
        <ele>37.646785</ele>
        <time>2021-05-21T23:08:40.319Z</time>
      </trkpt>
      <trkpt lat="50.6044" lon="3.36968">
        <ele>37.757471</ele>
        <time>2021-05-21T23:08:41.759Z</time>
      </trkpt>
      <trkpt lat="50.60439" lon="3.37027">
        <ele>38.345149</ele>
        <time>2021-05-21T23:08:49.509Z</time>
      </trkpt>
      <trkpt lat="50.60444" lon="3.37074">
        <ele>38.817139</ele>
        <time>2021-05-21T23:08:55.658Z</time>
      </trkpt>
      <trkpt lat="50.60435" lon="3.37081">
        <ele>38.977044</ele>
        <time>2021-05-21T23:08:58.606Z</time>
      </trkpt>
      <trkpt lat="50.60416" lon="3.37094">
        <ele>39.294594</ele>
        <time>2021-05-21T23:09:03.848Z</time>
      </trkpt>
      <trkpt lat="50.60256" lon="3.37316">
        <ele>42.708535</ele>
        <time>2021-05-21T23:10:01.264Z</time>
      </trkpt>
      <trkpt lat="50.60247" lon="3.37328">
        <ele>42.89707</ele>
        <time>2021-05-21T23:10:04.507Z</time>
      </trkpt>
      <trkpt lat="50.60241" lon="3.37338">
        <ele>43.031409</ele>
        <time>2021-05-21T23:10:06.615Z</time>
      </trkpt>
      <trkpt lat="50.60109" lon="3.3754">
        <ele>45.56027</ele>
        <time>2021-05-21T23:10:53.755Z</time>
      </trkpt>
      <trkpt lat="50.60105" lon="3.37547">
        <ele>45.636902</ele>
        <time>2021-05-21T23:10:55.432Z</time>
      </trkpt>
      <trkpt lat="50.60102" lon="3.37544">
        <ele>45.685248</ele>
        <time>2021-05-21T23:10:56.412Z</time>
      </trkpt>
      <trkpt lat="50.60098" lon="3.37544">
        <ele>45.7322</ele>
        <time>2021-05-21T23:10:57.333Z</time>
      </trkpt>
      <trkpt lat="50.60094" lon="3.37547">
        <ele>45.779326</ele>
        <time>2021-05-21T23:10:58.313Z</time>
      </trkpt>
      <trkpt lat="50.60092" lon="3.37551">
        <ele>45.819325</ele>
        <time>2021-05-21T23:10:59.073Z</time>
      </trkpt>
      <trkpt lat="50.60091" lon="3.37561">
        <ele>45.897375</ele>
        <time>2021-05-21T23:11:00.603Z</time>
      </trkpt>
      <trkpt lat="50.60093" lon="3.37566">
        <ele>45.936732</ele>
        <time>2021-05-21T23:11:01.359Z</time>
      </trkpt>
      <trkpt lat="50.60085" lon="3.37571">
        <ele>46.035025</ele>
        <time>2021-05-21T23:11:03.822Z</time>
      </trkpt>
      <trkpt lat="50.59961" lon="3.37761">
        <ele>47.999576</ele>
        <time>2021-05-21T23:11:46.795Z</time>
      </trkpt>
      <trkpt lat="50.59956" lon="3.37765">
        <ele>48.043653</ele>
        <time>2021-05-21T23:11:48.194Z</time>
      </trkpt>
      <trkpt lat="50.59948" lon="3.37772">
        <ele>48.132502</ele>
        <time>2021-05-21T23:11:49.781Z</time>
      </trkpt>
      <trkpt lat="50.59909" lon="3.37805">
        <ele>48.527399</ele>
        <time>2021-05-21T23:11:57.808Z</time>
      </trkpt>
      <trkpt lat="50.59829" lon="3.37872">
        <ele>49.346812</ele>
        <time>2021-05-21T23:12:14.716Z</time>
      </trkpt>
      <trkpt lat="50.59825" lon="3.37876">
        <ele>49.39057</ele>
        <time>2021-05-21T23:12:15.634Z</time>
      </trkpt>
      <trkpt lat="50.5979" lon="3.37915">
        <ele>49.592365</ele>
        <time>2021-05-21T23:12:22.992Z</time>
      </trkpt>
      <trkpt lat="50.59718" lon="3.38002">
        <ele>50.022448</ele>
        <time>2021-05-21T23:12:38.574Z</time>
      </trkpt>
      <trkpt lat="50.5971" lon="3.38016">
        <ele>50.076731</ele>
        <time>2021-05-21T23:12:40.726Z</time>
      </trkpt>
      <trkpt lat="50.59714" lon="3.3802">
        <ele>50.098425</ele>
        <time>2021-05-21T23:12:41.455Z</time>
      </trkpt>
      <trkpt lat="50.59746" lon="3.3805">
        <ele>50.185134</ele>
        <time>2021-05-21T23:12:47.523Z</time>
      </trkpt>
      <trkpt lat="50.59869" lon="3.38139">
        <ele>49.229351</ele>
        <time>2021-05-21T23:13:04.557Z</time>
      </trkpt>
      <trkpt lat="50.59855" lon="3.38165">
        <ele>49.078885</ele>
        <time>2021-05-21T23:13:08.099Z</time>
      </trkpt>
      <trkpt lat="50.59818" lon="3.38229">
        <ele>48.434892</ele>
        <time>2021-05-21T23:13:17.639Z</time>
      </trkpt>
      <trkpt lat="50.59812" lon="3.38236">
        <ele>48.331572</ele>
        <time>2021-05-21T23:13:18.932Z</time>
      </trkpt>
      <trkpt lat="50.59808" lon="3.38243">
        <ele>48.253436</ele>
        <time>2021-05-21T23:13:19.879Z</time>
      </trkpt>
      <trkpt lat="50.59753" lon="3.38333">
        <ele>47.188672</ele>
        <time>2021-05-21T23:13:32.953Z</time>
      </trkpt>
      <trkpt lat="50.59705" lon="3.38454">
        <ele>45.719165</ele>
        <time>2021-05-21T23:13:48.098Z</time>
      </trkpt>
      <trkpt lat="50.597" lon="3.38465">
        <ele>45.552311</ele>
        <time>2021-05-21T23:13:49.524Z</time>
      </trkpt>
      <trkpt lat="50.59694" lon="3.38484">
        <ele>45.289894</ele>
        <time>2021-05-21T23:13:51.641Z</time>
      </trkpt>
      <trkpt lat="50.59646" lon="3.38612">
        <ele>43.469858</ele>
        <time>2021-05-21T23:14:06.453Z</time>
      </trkpt>
      <trkpt lat="50.5962" lon="3.38646">
        <ele>42.754956</ele>
        <time>2021-05-21T23:14:11.618Z</time>
      </trkpt>
      <trkpt lat="50.59572" lon="3.38708">
        <ele>41.248703</ele>
        <time>2021-05-21T23:14:21.154Z</time>
      </trkpt>
      <trkpt lat="50.5951" lon="3.38787">
        <ele>39.328589</ele>
        <time>2021-05-21T23:14:29.593Z</time>
      </trkpt>
      <trkpt lat="50.595" lon="3.38801">
        <ele>39.003204</ele>
        <time>2021-05-21T23:14:31.032Z</time>
      </trkpt>
      <trkpt lat="50.59491" lon="3.38813">
        <ele>38.720474</ele>
        <time>2021-05-21T23:14:32.279Z</time>
      </trkpt>
      <trkpt lat="50.5948" lon="3.38826">
        <ele>38.357671</ele>
        <time>2021-05-21T23:14:33.747Z</time>
      </trkpt>
      <trkpt lat="50.59451" lon="3.38861">
        <ele>37.390902</ele>
        <time>2021-05-21T23:14:37.639Z</time>
      </trkpt>
      <trkpt lat="50.59418" lon="3.38902">
        <ele>36.285179</ele>
        <time>2021-05-21T23:14:42.090Z</time>
      </trkpt>
      <trkpt lat="50.59405" lon="3.38917">
        <ele>35.849316</ele>
        <time>2021-05-21T23:14:43.835Z</time>
      </trkpt>
      <trkpt lat="50.59389" lon="3.38926">
        <ele>35.41311</ele>
        <time>2021-05-21T23:14:45.555Z</time>
      </trkpt>
      <trkpt lat="50.59362" lon="3.38944">
        <ele>34.639723</ele>
        <time>2021-05-21T23:14:48.593Z</time>
      </trkpt>
      <trkpt lat="50.59236" lon="3.39024">
        <ele>30.879462</ele>
        <time>2021-05-21T23:15:02.488Z</time>
      </trkpt>
      <trkpt lat="50.59211" lon="3.3904">
        <ele>30.118251</ele>
        <time>2021-05-21T23:15:05.306Z</time>
      </trkpt>
      <trkpt lat="50.59092" lon="3.39122">
        <ele>27.852076</ele>
        <time>2021-05-21T23:15:19.360Z</time>
      </trkpt>
      <trkpt lat="50.58909" lon="3.39304">
        <ele>27.112842</ele>
        <time>2021-05-21T23:15:49.203Z</time>
      </trkpt>
      <trkpt lat="50.58904" lon="3.39309">
        <ele>27.132427</ele>
        <time>2021-05-21T23:15:50.468Z</time>
      </trkpt>
      <trkpt lat="50.58887" lon="3.39326">
        <ele>27.198232</ele>
        <time>2021-05-21T23:15:54.150Z</time>
      </trkpt>
      <trkpt lat="50.58668" lon="3.3946">
        <ele>31.325225</ele>
        <time>2021-05-21T23:16:46.995Z</time>
      </trkpt>
      <trkpt lat="50.58533" lon="3.39506">
        <ele>34.765361</ele>
        <time>2021-05-21T23:17:21.915Z</time>
      </trkpt>
      <trkpt lat="50.58484" lon="3.39527">
        <ele>36.215406</ele>
        <time>2021-05-21T23:17:35.170Z</time>
      </trkpt>
      <trkpt lat="50.58438" lon="3.3954">
        <ele>37.612104</ele>
        <time>2021-05-21T23:17:47.196Z</time>
      </trkpt>
      <trkpt lat="50.58257" lon="3.39525">
        <ele>43.431777</ele>
        <time>2021-05-21T23:18:37.160Z</time>
      </trkpt>
      <trkpt lat="50.58256" lon="3.39525">
        <ele>43.49809</ele>
        <time>2021-05-21T23:18:38.371Z</time>
      </trkpt>
      <trkpt lat="50.57849" lon="3.39497">
        <ele>57.463722</ele>
        <time>2021-05-21T23:20:35.864Z</time>
      </trkpt>
      <trkpt lat="50.57822" lon="3.39482">
        <ele>58.425548</ele>
        <time>2021-05-21T23:20:43.852Z</time>
      </trkpt>
      <trkpt lat="50.57736" lon="3.39415">
        <ele>60.663376</ele>
        <time>2021-05-21T23:21:08.468Z</time>
      </trkpt>
      <trkpt lat="50.57696" lon="3.39395">
        <ele>61.512848</ele>
        <time>2021-05-21T23:21:18.057Z</time>
      </trkpt>
      <trkpt lat="50.57647" lon="3.39385">
        <ele>62.52206</ele>
        <time>2021-05-21T23:21:28.615Z</time>
      </trkpt>
      <trkpt lat="50.57541" lon="3.39409">
        <ele>62.856994</ele>
        <time>2021-05-21T23:21:46.741Z</time>
      </trkpt>
      <trkpt lat="50.57506" lon="3.39426">
        <ele>62.88585</ele>
        <time>2021-05-21T23:21:51.891Z</time>
      </trkpt>
      <trkpt lat="50.57486" lon="3.39435">
        <ele>62.901773</ele>
        <time>2021-05-21T23:21:54.549Z</time>
      </trkpt>
      <trkpt lat="50.57308" lon="3.39461">
        <ele>61.599634</ele>
        <time>2021-05-21T23:22:16.564Z</time>
      </trkpt>
      <trkpt lat="50.57273" lon="3.39465">
        <ele>61.297875</ele>
        <time>2021-05-21T23:22:20.979Z</time>
      </trkpt>
      <trkpt lat="50.57268" lon="3.39464">
        <ele>61.261097</ele>
        <time>2021-05-21T23:22:21.614Z</time>
      </trkpt>
      <trkpt lat="50.57131" lon="3.39439">
        <ele>60.309682</ele>
        <time>2021-05-21T23:22:39.045Z</time>
      </trkpt>
      <trkpt lat="50.57021" lon="3.39385">
        <ele>59.655851</ele>
        <time>2021-05-21T23:22:54.510Z</time>
      </trkpt>
      <trkpt lat="50.56984" lon="3.39373">
        <ele>59.456752</ele>
        <time>2021-05-21T23:22:59.666Z</time>
      </trkpt>
      <trkpt lat="50.56864" lon="3.39359">
        <ele>58.629351</ele>
        <time>2021-05-21T23:23:15.309Z</time>
      </trkpt>
      <trkpt lat="50.56801" lon="3.39345">
        <ele>58.088925</ele>
        <time>2021-05-21T23:23:23.331Z</time>
      </trkpt>
      <trkpt lat="50.56771" lon="3.39336">
        <ele>57.831201</ele>
        <time>2021-05-21T23:23:27.073Z</time>
      </trkpt>
      <trkpt lat="50.56588" lon="3.3929">
        <ele>55.604621</ele>
        <time>2021-05-21T23:23:48.836Z</time>
      </trkpt>
      <trkpt lat="50.56572" lon="3.39286">
        <ele>55.399852</ele>
        <time>2021-05-21T23:23:50.746Z</time>
      </trkpt>
      <trkpt lat="50.56566" lon="3.39285">
        <ele>55.362374</ele>
        <time>2021-05-21T23:23:51.488Z</time>
      </trkpt>
      <trkpt lat="50.56528" lon="3.39276">
        <ele>55.213123</ele>
        <time>2021-05-21T23:23:56.116Z</time>
      </trkpt>
      <trkpt lat="50.56405" lon="3.39732">
        <ele>54.571501</ele>
        <time>2021-05-21T23:24:58.608Z</time>
      </trkpt>
      <trkpt lat="50.564" lon="3.39778">
        <ele>54.563393</ele>
        <time>2021-05-21T23:25:04.976Z</time>
      </trkpt>
      <trkpt lat="50.56412" lon="3.40035">
        <ele>54.440602</ele>
        <time>2021-05-21T23:25:38.876Z</time>
      </trkpt>
      <trkpt lat="50.56434" lon="3.40535">
        <ele>51.266924</ele>
        <time>2021-05-21T23:26:34.835Z</time>
      </trkpt>
      <trkpt lat="50.56313" lon="3.40575">
        <ele>48.375859</ele>
        <time>2021-05-21T23:26:53.567Z</time>
      </trkpt>
      <trkpt lat="50.5625" lon="3.4059">
        <ele>46.678082</ele>
        <time>2021-05-21T23:27:02.846Z</time>
      </trkpt>
      <trkpt lat="50.56171" lon="3.40617">
        <ele>44.507217</ele>
        <time>2021-05-21T23:27:14.866Z</time>
      </trkpt>
      <trkpt lat="50.56024" lon="3.40673">
        <ele>40.618594</ele>
        <time>2021-05-21T23:27:37.867Z</time>
      </trkpt>
      <trkpt lat="50.56017" lon="3.40676">
        <ele>40.446648</ele>
        <time>2021-05-21T23:27:39.055Z</time>
      </trkpt>
      <trkpt lat="50.55968" lon="3.40696">
        <ele>39.320824</ele>
        <time>2021-05-21T23:27:46.805Z</time>
      </trkpt>
      <trkpt lat="50.55961" lon="3.40698">
        <ele>39.158648</ele>
        <time>2021-05-21T23:27:47.938Z</time>
      </trkpt>
      <trkpt lat="50.55926" lon="3.40715">
        <ele>38.33576</ele>
        <time>2021-05-21T23:27:53.664Z</time>
      </trkpt>
      <trkpt lat="50.55796" lon="3.40766">
        <ele>35.248857</ele>
        <time>2021-05-21T23:28:14.487Z</time>
      </trkpt>
      <trkpt lat="50.55504" lon="3.40862">
        <ele>28.236188</ele>
        <time>2021-05-21T23:28:59.855Z</time>
      </trkpt>
      <trkpt lat="50.55492" lon="3.40868">
        <ele>28.074238</ele>
        <time>2021-05-21T23:29:01.663Z</time>
      </trkpt>
      <trkpt lat="50.55459" lon="3.40859">
        <ele>27.616497</ele>
        <time>2021-05-21T23:29:07.109Z</time>
      </trkpt>
      <trkpt lat="50.55443" lon="3.40868">
        <ele>27.390063</ele>
        <time>2021-05-21T23:29:09.856Z</time>
      </trkpt>
      <trkpt lat="50.55329" lon="3.40904">
        <ele>26.194423</ele>
        <time>2021-05-21T23:29:30.632Z</time>
      </trkpt>
      <trkpt lat="50.55256" lon="3.40915">
        <ele>26.410529</ele>
        <time>2021-05-21T23:29:46.602Z</time>
      </trkpt>
      <trkpt lat="50.55128" lon="3.40966">
        <ele>26.903917</ele>
        <time>2021-05-21T23:30:16.950Z</time>
      </trkpt>
      <trkpt lat="50.54954" lon="3.41019">
        <ele>27.521631</ele>
        <time>2021-05-21T23:30:55.947Z</time>
      </trkpt>
      <trkpt lat="50.54933" lon="3.41026">
        <ele>27.5011</ele>
        <time>2021-05-21T23:31:00.442Z</time>
      </trkpt>
      <trkpt lat="50.54828" lon="3.4106">
        <ele>27.398311</ele>
        <time>2021-05-21T23:31:21.103Z</time>
      </trkpt>
      <trkpt lat="50.54794" lon="3.41076">
        <ele>27.082581</ele>
        <time>2021-05-21T23:31:27.523Z</time>
      </trkpt>
      <trkpt lat="50.54776" lon="3.41089">
        <ele>26.877486</ele>
        <time>2021-05-21T23:31:31.129Z</time>
      </trkpt>
      <trkpt lat="50.5476" lon="3.41105">
        <ele>26.68103</ele>
        <time>2021-05-21T23:31:34.393Z</time>
      </trkpt>
      <trkpt lat="50.54722" lon="3.41157">
        <ele>26.16548</ele>
        <time>2021-05-21T23:31:43.003Z</time>
      </trkpt>
      <trkpt lat="50.54707" lon="3.41187">
        <ele>25.915011</ele>
        <time>2021-05-21T23:31:47.038Z</time>
      </trkpt>
      <trkpt lat="50.5456" lon="3.4153">
        <ele>22.412728</ele>
        <time>2021-05-21T23:32:30.503Z</time>
      </trkpt>
      <trkpt lat="50.5453" lon="3.41694">
        <ele>21.244642</ele>
        <time>2021-05-21T23:32:49.395Z</time>
      </trkpt>
      <trkpt lat="50.54517" lon="3.41725">
        <ele>20.991785</ele>
        <time>2021-05-21T23:32:53.613Z</time>
      </trkpt>
      <trkpt lat="50.54448" lon="3.41892">
        <ele>20.251134</ele>
        <time>2021-05-21T23:33:16.990Z</time>
      </trkpt>
      <trkpt lat="50.54439" lon="3.41907">
        <ele>20.172866</ele>
        <time>2021-05-21T23:33:19.480Z</time>
      </trkpt>
      <trkpt lat="50.54417" lon="3.41925">
        <ele>20.030801</ele>
        <time>2021-05-21T23:33:24.003Z</time>
      </trkpt>
      <trkpt lat="50.54358" lon="3.41944">
        <ele>19.695916</ele>
        <time>2021-05-21T23:33:35.237Z</time>
      </trkpt>
      <trkpt lat="50.54334" lon="3.4196">
        <ele>19.553838</ele>
        <time>2021-05-21T23:33:40.102Z</time>
      </trkpt>
      <trkpt lat="50.5432" lon="3.41974">
        <ele>19.467438</ele>
        <time>2021-05-21T23:33:43.027Z</time>
      </trkpt>
      <trkpt lat="50.54311" lon="3.41984">
        <ele>19.403574</ele>
        <time>2021-05-21T23:33:45.190Z</time>
      </trkpt>
      <trkpt lat="50.54221" lon="3.42162">
        <ele>18.868829</ele>
        <time>2021-05-21T23:34:11.719Z</time>
      </trkpt>
      <trkpt lat="50.5421" lon="3.42175">
        <ele>18.849374</ele>
        <time>2021-05-21T23:34:14.326Z</time>
      </trkpt>
      <trkpt lat="50.54211" lon="3.42191">
        <ele>18.834766</ele>
        <time>2021-05-21T23:34:15.805Z</time>
      </trkpt>
      <trkpt lat="50.54162" lon="3.42227">
        <ele>18.758015</ele>
        <time>2021-05-21T23:34:27.001Z</time>
      </trkpt>
      <trkpt lat="50.54128" lon="3.42236">
        <ele>18.709013</ele>
        <time>2021-05-21T23:34:34.292Z</time>
      </trkpt>
      <trkpt lat="50.54079" lon="3.4223">
        <ele>18.918567</ele>
        <time>2021-05-21T23:34:44.607Z</time>
      </trkpt>
      <trkpt lat="50.54074" lon="3.4223">
        <ele>18.939876</ele>
        <time>2021-05-21T23:34:45.485Z</time>
      </trkpt>
      <trkpt lat="50.54068" lon="3.42229">
        <ele>18.968456</ele>
        <time>2021-05-21T23:34:46.887Z</time>
      </trkpt>
      <trkpt lat="50.54054" lon="3.42229">
        <ele>19.039464</ele>
        <time>2021-05-21T23:34:50.260Z</time>
      </trkpt>
      <trkpt lat="50.54024" lon="3.4224">
        <ele>19.186367</ele>
        <time>2021-05-21T23:34:57.008Z</time>
      </trkpt>
      <trkpt lat="50.53997" lon="3.42265">
        <ele>19.337142</ele>
        <time>2021-05-21T23:35:04.089Z</time>
      </trkpt>
      <trkpt lat="50.53985" lon="3.4228">
        <ele>19.411362</ele>
        <time>2021-05-21T23:35:07.735Z</time>
      </trkpt>
      <trkpt lat="50.5398" lon="3.423">
        <ele>19.476019</ele>
        <time>2021-05-21T23:35:10.735Z</time>
      </trkpt>
      <trkpt lat="50.53968" lon="3.42348">
        <ele>19.653464</ele>
        <time>2021-05-21T23:35:18.391Z</time>
      </trkpt>
      <trkpt lat="50.53965" lon="3.42346">
        <ele>19.676244</ele>
        <time>2021-05-21T23:35:19.182Z</time>
      </trkpt>
      <trkpt lat="50.53907" lon="3.42331">
        <ele>20.035751</ele>
        <time>2021-05-21T23:35:29.340Z</time>
      </trkpt>
      <trkpt lat="50.53826" lon="3.42315">
        <ele>20.542755</ele>
        <time>2021-05-21T23:35:43.109Z</time>
      </trkpt>
      <trkpt lat="50.53725" lon="3.42291">
        <ele>21.275245</ele>
        <time>2021-05-21T23:36:00.695Z</time>
      </trkpt>
      <trkpt lat="50.53576" lon="3.42263">
        <ele>22.723801</ele>
        <time>2021-05-21T23:36:28.167Z</time>
      </trkpt>
      <trkpt lat="50.53478" lon="3.42237">
        <ele>24.096006</ele>
        <time>2021-05-21T23:36:48.907Z</time>
      </trkpt>
      <trkpt lat="50.53342" lon="3.42208">
        <ele>26.168882</ele>
        <time>2021-05-21T23:37:19.361Z</time>
      </trkpt>
      <trkpt lat="50.53268" lon="3.42193">
        <ele>27.314818</ele>
        <time>2021-05-21T23:37:34.778Z</time>
      </trkpt>
      <trkpt lat="50.53265" lon="3.42192">
        <ele>27.326662</ele>
        <time>2021-05-21T23:37:35.365Z</time>
      </trkpt>
      <trkpt lat="50.53254" lon="3.42189">
        <ele>27.368457</ele>
        <time>2021-05-21T23:37:37.998Z</time>
      </trkpt>
      <trkpt lat="50.5289" lon="3.42111">
        <ele>28.343855</ele>
        <time>2021-05-21T23:38:55.100Z</time>
      </trkpt>
      <trkpt lat="50.52836" lon="3.42099">
        <ele>28.370599</ele>
        <time>2021-05-21T23:39:06.065Z</time>
      </trkpt>
      <trkpt lat="50.52752" lon="3.4208">
        <ele>28.411925</ele>
        <time>2021-05-21T23:39:23.383Z</time>
      </trkpt>
      <trkpt lat="50.52597" lon="3.42045">
        <ele>28.361527</ele>
        <time>2021-05-21T23:39:55.541Z</time>
      </trkpt>
      <trkpt lat="50.52521" lon="3.42029">
        <ele>28.132887</ele>
        <time>2021-05-21T23:40:10.022Z</time>
      </trkpt>
      <trkpt lat="50.52437" lon="3.42011">
        <ele>27.622699</ele>
        <time>2021-05-21T23:40:25.679Z</time>
      </trkpt>
      <trkpt lat="50.52365" lon="3.41989">
        <ele>27.105059</ele>
        <time>2021-05-21T23:40:38.855Z</time>
      </trkpt>
      <trkpt lat="50.52273" lon="3.41971">
        <ele>26.036463</ele>
        <time>2021-05-21T23:40:54.792Z</time>
      </trkpt>
      <trkpt lat="50.52246" lon="3.41966">
        <ele>25.724749</ele>
        <time>2021-05-21T23:40:59.394Z</time>
      </trkpt>
      <trkpt lat="50.52169" lon="3.4195">
        <ele>24.86722</ele>
        <time>2021-05-21T23:41:12.195Z</time>
      </trkpt>
      <trkpt lat="50.52105" lon="3.41935">
        <ele>24.196878</ele>
        <time>2021-05-21T23:41:23.176Z</time>
      </trkpt>
      <trkpt lat="50.52093" lon="3.41932">
        <ele>24.071901</ele>
        <time>2021-05-21T23:41:25.065Z</time>
      </trkpt>
      <trkpt lat="50.52079" lon="3.41929">
        <ele>23.927343</ele>
        <time>2021-05-21T23:41:27.546Z</time>
      </trkpt>
      <trkpt lat="50.52048" lon="3.41921">
        <ele>23.605668</ele>
        <time>2021-05-21T23:41:32.885Z</time>
      </trkpt>
      <trkpt lat="50.52017" lon="3.41913">
        <ele>23.351357</ele>
        <time>2021-05-21T23:41:38.751Z</time>
      </trkpt>
      <trkpt lat="50.51906" lon="3.41912">
        <ele>23.697411</ele>
        <time>2021-05-21T23:42:02.285Z</time>
      </trkpt>
      <trkpt lat="50.51886" lon="3.41916">
        <ele>23.758231</ele>
        <time>2021-05-21T23:42:06.700Z</time>
      </trkpt>
      <trkpt lat="50.5188" lon="3.41917">
        <ele>23.776869</ele>
        <time>2021-05-21T23:42:08.040Z</time>
      </trkpt>
      <trkpt lat="50.51872" lon="3.41918">
        <ele>23.802729</ele>
        <time>2021-05-21T23:42:10.212Z</time>
      </trkpt>
      <trkpt lat="50.51736" lon="3.41927">
        <ele>24.766189</ele>
        <time>2021-05-21T23:42:42.997Z</time>
      </trkpt>
      <trkpt lat="50.51727" lon="3.41926">
        <ele>24.842454</ele>
        <time>2021-05-21T23:42:45.431Z</time>
      </trkpt>
      <trkpt lat="50.51713" lon="3.41925">
        <ele>24.953963</ele>
        <time>2021-05-21T23:42:48.728Z</time>
      </trkpt>
      <trkpt lat="50.5151" lon="3.41926">
        <ele>25.711329</ele>
        <time>2021-05-21T23:43:32.997Z</time>
      </trkpt>
      <trkpt lat="50.51487" lon="3.41945">
        <ele>25.770602</ele>
        <time>2021-05-21T23:43:38.005Z</time>
      </trkpt>
      <trkpt lat="50.51481" lon="3.4195">
        <ele>25.726649</ele>
        <time>2021-05-21T23:43:39.125Z</time>
      </trkpt>
      <trkpt lat="50.51465" lon="3.41959">
        <ele>25.595336</ele>
        <time>2021-05-21T23:43:42.380Z</time>
      </trkpt>
      <trkpt lat="50.51437" lon="3.4197">
        <ele>25.377983</ele>
        <time>2021-05-21T23:43:47.750Z</time>
      </trkpt>
      <trkpt lat="50.51422" lon="3.41972">
        <ele>25.268728</ele>
        <time>2021-05-21T23:43:50.380Z</time>
      </trkpt>
      <trkpt lat="50.51384" lon="3.41976">
        <ele>24.979275</ele>
        <time>2021-05-21T23:43:57.269Z</time>
      </trkpt>
      <trkpt lat="50.51309" lon="3.41999">
        <ele>24.404777</ele>
        <time>2021-05-21T23:44:10.409Z</time>
      </trkpt>
      <trkpt lat="50.51218" lon="3.42052">
        <ele>23.47708</ele>
        <time>2021-05-21T23:44:27.244Z</time>
      </trkpt>
      <trkpt lat="50.51129" lon="3.42133">
        <ele>22.544751</ele>
        <time>2021-05-21T23:44:45.201Z</time>
      </trkpt>
      <trkpt lat="50.51068" lon="3.42217">
        <ele>21.9289</ele>
        <time>2021-05-21T23:44:59.655Z</time>
      </trkpt>
      <trkpt lat="50.5106" lon="3.42232">
        <ele>21.834121</ele>
        <time>2021-05-21T23:45:01.837Z</time>
      </trkpt>
      <trkpt lat="50.51046" lon="3.4226">
        <ele>21.66169</ele>
        <time>2021-05-21T23:45:05.954Z</time>
      </trkpt>
      <trkpt lat="50.5105" lon="3.42275">
        <ele>21.585403</ele>
        <time>2021-05-21T23:45:07.778Z</time>
      </trkpt>
      <trkpt lat="50.51038" lon="3.42282">
        <ele>21.489683</ele>
        <time>2021-05-21T23:45:09.354Z</time>
      </trkpt>
      <trkpt lat="50.51025" lon="3.42289">
        <ele>21.384945</ele>
        <time>2021-05-21T23:45:11.189Z</time>
      </trkpt>
      <trkpt lat="50.51021" lon="3.42292">
        <ele>21.35151</ele>
        <time>2021-05-21T23:45:11.760Z</time>
      </trkpt>
      <trkpt lat="50.51002" lon="3.42307">
        <ele>21.235249</ele>
        <time>2021-05-21T23:45:14.551Z</time>
      </trkpt>
      <trkpt lat="50.50987" lon="3.42321">
        <ele>21.147933</ele>
        <time>2021-05-21T23:45:16.805Z</time>
      </trkpt>
      <trkpt lat="50.50984" lon="3.42324">
        <ele>21.128976</ele>
        <time>2021-05-21T23:45:17.238Z</time>
      </trkpt>
      <trkpt lat="50.50931" lon="3.42378">
        <ele>20.796009</ele>
        <time>2021-05-21T23:45:25.698Z</time>
      </trkpt>
      <trkpt lat="50.50893" lon="3.42426">
        <ele>20.537575</ele>
        <time>2021-05-21T23:45:32.181Z</time>
      </trkpt>
      <trkpt lat="50.50684" lon="3.42741">
        <ele>19.089125</ele>
        <time>2021-05-21T23:46:10.906Z</time>
      </trkpt>
      <trkpt lat="50.50652" lon="3.4279">
        <ele>18.828464</ele>
        <time>2021-05-21T23:46:16.555Z</time>
      </trkpt>
      <trkpt lat="50.50633" lon="3.42818">
        <ele>18.676789</ele>
        <time>2021-05-21T23:46:19.747Z</time>
      </trkpt>
      <trkpt lat="50.50538" lon="3.42968">
        <ele>18.426295</ele>
        <time>2021-05-21T23:46:37.803Z</time>
      </trkpt>
      <trkpt lat="50.50529" lon="3.42984">
        <ele>18.413897</ele>
        <time>2021-05-21T23:46:39.714Z</time>
      </trkpt>
      <trkpt lat="50.50523" lon="3.42993">
        <ele>18.406488</ele>
        <time>2021-05-21T23:46:41.021Z</time>
      </trkpt>
      <trkpt lat="50.50517" lon="3.43003">
        <ele>18.398292</ele>
        <time>2021-05-21T23:46:42.784Z</time>
      </trkpt>
      <trkpt lat="50.50469" lon="3.43071">
        <ele>18.57225</ele>
        <time>2021-05-21T23:46:53.726Z</time>
      </trkpt>
      <trkpt lat="50.50406" lon="3.43154">
        <ele>19.295494</ele>
        <time>2021-05-21T23:47:08.989Z</time>
      </trkpt>
      <trkpt lat="50.50385" lon="3.43181">
        <ele>19.530302</ele>
        <time>2021-05-21T23:47:14.010Z</time>
      </trkpt>
      <trkpt lat="50.50376" lon="3.43191">
        <ele>19.627188</ele>
        <time>2021-05-21T23:47:16.165Z</time>
      </trkpt>
      <trkpt lat="50.50369" lon="3.43196">
        <ele>19.702259</ele>
        <time>2021-05-21T23:47:17.711Z</time>
      </trkpt>
      <trkpt lat="50.5036" lon="3.43202">
        <ele>19.782376</ele>
        <time>2021-05-21T23:47:19.422Z</time>
      </trkpt>
      <trkpt lat="50.50351" lon="3.432">
        <ele>19.869267</ele>
        <time>2021-05-21T23:47:21.336Z</time>
      </trkpt>
      <trkpt lat="50.50342" lon="3.432">
        <ele>19.942479</ele>
        <time>2021-05-21T23:47:22.955Z</time>
      </trkpt>
      <trkpt lat="50.50333" lon="3.43201">
        <ele>20.076187</ele>
        <time>2021-05-21T23:47:24.618Z</time>
      </trkpt>
      <trkpt lat="50.50323" lon="3.43204">
        <ele>20.232665</ele>
        <time>2021-05-21T23:47:26.587Z</time>
      </trkpt>
      <trkpt lat="50.50297" lon="3.43211">
        <ele>20.621318</ele>
        <time>2021-05-21T23:47:31.415Z</time>
      </trkpt>
      <trkpt lat="50.50292" lon="3.43213">
        <ele>20.705317</ele>
        <time>2021-05-21T23:47:32.442Z</time>
      </trkpt>
      <trkpt lat="50.50268" lon="3.43223">
        <ele>21.074497</ele>
        <time>2021-05-21T23:47:37.354Z</time>
      </trkpt>
      <trkpt lat="50.50204" lon="3.43255">
        <ele>22.090581</ele>
        <time>2021-05-21T23:47:51.575Z</time>
      </trkpt>
      <trkpt lat="50.50145" lon="3.43263">
        <ele>23.134834</ele>
        <time>2021-05-21T23:48:05.296Z</time>
      </trkpt>
      <trkpt lat="50.50139" lon="3.43264">
        <ele>23.275698</ele>
        <time>2021-05-21T23:48:07.002Z</time>
      </trkpt>
      <trkpt lat="50.50109" lon="3.43266">
        <ele>23.92836</ele>
        <time>2021-05-21T23:48:13.896Z</time>
      </trkpt>
      <trkpt lat="50.50048" lon="3.43272">
        <ele>25.303668</ele>
        <time>2021-05-21T23:48:28.759Z</time>
      </trkpt>
      <trkpt lat="50.50006" lon="3.43277">
        <ele>26.240797</ele>
        <time>2021-05-21T23:48:38.884Z</time>
      </trkpt>
      <trkpt lat="50.49958" lon="3.43293">
        <ele>27.094645</ele>
        <time>2021-05-21T23:48:50.684Z</time>
      </trkpt>
      <trkpt lat="50.49883" lon="3.4333">
        <ele>28.234511</ele>
        <time>2021-05-21T23:49:07.813Z</time>
      </trkpt>
      <trkpt lat="50.49864" lon="3.43345">
        <ele>28.545914</ele>
        <time>2021-05-21T23:49:11.859Z</time>
      </trkpt>
      <trkpt lat="50.49839" lon="3.43364">
        <ele>28.938353</ele>
        <time>2021-05-21T23:49:16.765Z</time>
      </trkpt>
      <trkpt lat="50.49777" lon="3.43415">
        <ele>29.227483</ele>
        <time>2021-05-21T23:49:28.686Z</time>
      </trkpt>
      <trkpt lat="50.49769" lon="3.43422">
        <ele>29.221052</ele>
        <time>2021-05-21T23:49:30.069Z</time>
      </trkpt>
      <trkpt lat="50.49756" lon="3.43431">
        <ele>29.210817</ele>
        <time>2021-05-21T23:49:32.383Z</time>
      </trkpt>
      <trkpt lat="50.49734" lon="3.43444">
        <ele>29.194636</ele>
        <time>2021-05-21T23:49:36.810Z</time>
      </trkpt>
      <trkpt lat="50.49652" lon="3.43489">
        <ele>29.126327</ele>
        <time>2021-05-21T23:49:53.084Z</time>
      </trkpt>
      <trkpt lat="50.49635" lon="3.435">
        <ele>29.025744</ele>
        <time>2021-05-21T23:49:56.474Z</time>
      </trkpt>
      <trkpt lat="50.49576" lon="3.43539">
        <ele>28.687044</ele>
        <time>2021-05-21T23:50:08.038Z</time>
      </trkpt>
      <trkpt lat="50.4956" lon="3.43546">
        <ele>28.597538</ele>
        <time>2021-05-21T23:50:10.265Z</time>
      </trkpt>
      <trkpt lat="50.49477" lon="3.43565">
        <ele>28.163691</ele>
        <time>2021-05-21T23:50:21.232Z</time>
      </trkpt>
      <trkpt lat="50.4929" lon="3.43541">
        <ele>27.6101</ele>
        <time>2021-05-21T23:50:47.782Z</time>
      </trkpt>
      <trkpt lat="50.49267" lon="3.43542">
        <ele>27.467208</ele>
        <time>2021-05-21T23:50:50.795Z</time>
      </trkpt>
      <trkpt lat="50.49218" lon="3.43548">
        <ele>27.149909</ele>
        <time>2021-05-21T23:50:57.386Z</time>
      </trkpt>
      <trkpt lat="50.49186" lon="3.4355">
        <ele>26.946723</ele>
        <time>2021-05-21T23:51:01.500Z</time>
      </trkpt>
      <trkpt lat="50.49169" lon="3.4355">
        <ele>26.835288</ele>
        <time>2021-05-21T23:51:03.710Z</time>
      </trkpt>
      <trkpt lat="50.4915" lon="3.43547">
        <ele>26.710565</ele>
        <time>2021-05-21T23:51:06.201Z</time>
      </trkpt>
      <trkpt lat="50.49135" lon="3.43542">
        <ele>26.617431</ele>
        <time>2021-05-21T23:51:08.008Z</time>
      </trkpt>
      <trkpt lat="50.49092" lon="3.43524">
        <ele>26.027464</ele>
        <time>2021-05-21T23:51:13.337Z</time>
      </trkpt>
      <trkpt lat="50.49043" lon="3.43502">
        <ele>25.222741</ele>
        <time>2021-05-21T23:51:19.246Z</time>
      </trkpt>
      <trkpt lat="50.48999" lon="3.43482">
        <ele>24.504566</ele>
        <time>2021-05-21T23:51:24.364Z</time>
      </trkpt>
      <trkpt lat="50.48969" lon="3.43467">
        <ele>24.018492</ele>
        <time>2021-05-21T23:51:27.730Z</time>
      </trkpt>
      <trkpt lat="50.48913" lon="3.43426">
        <ele>23.124235</ele>
        <time>2021-05-21T23:51:34.717Z</time>
      </trkpt>
      <trkpt lat="50.4889" lon="3.43412">
        <ele>22.784793</ele>
        <time>2021-05-21T23:51:37.521Z</time>
      </trkpt>
      <trkpt lat="50.48866" lon="3.43401">
        <ele>22.443752</ele>
        <time>2021-05-21T23:51:40.381Z</time>
      </trkpt>
      <trkpt lat="50.48835" lon="3.43392">
        <ele>22.01956</ele>
        <time>2021-05-21T23:51:43.933Z</time>
      </trkpt>
      <trkpt lat="50.48831" lon="3.43417">
        <ele>21.78645</ele>
        <time>2021-05-21T23:51:46.017Z</time>
      </trkpt>
      <trkpt lat="50.48777" lon="3.43508">
        <ele>21.261101</ele>
        <time>2021-05-21T23:51:56.187Z</time>
      </trkpt>
      <trkpt lat="50.48772" lon="3.4353">
        <ele>21.265533</ele>
        <time>2021-05-21T23:51:58.233Z</time>
      </trkpt>
      <trkpt lat="50.48774" lon="3.4355">
        <ele>21.269528</ele>
        <time>2021-05-21T23:52:00.219Z</time>
      </trkpt>
      <trkpt lat="50.48786" lon="3.43584">
        <ele>21.277077</ele>
        <time>2021-05-21T23:52:03.853Z</time>
      </trkpt>
      <trkpt lat="50.48793" lon="3.43602">
        <ele>21.281189</ele>
        <time>2021-05-21T23:52:06.153Z</time>
      </trkpt>
      <trkpt lat="50.488" lon="3.4362">
        <ele>21.285269</ele>
        <time>2021-05-21T23:52:08.316Z</time>
      </trkpt>
      <trkpt lat="50.48753" lon="3.4366">
        <ele>21.301626</ele>
        <time>2021-05-21T23:52:20.283Z</time>
      </trkpt>
      <trkpt lat="50.488" lon="3.4362">
        <ele>21.45127</ele>
        <time>2021-05-21T23:52:32.004Z</time>
      </trkpt>
      <trkpt lat="50.48851" lon="3.4374">
        <ele>21.743598</ele>
        <time>2021-05-21T23:52:47.059Z</time>
      </trkpt>
      <trkpt lat="50.48863" lon="3.43769">
        <ele>21.813682</ele>
        <time>2021-05-21T23:52:50.389Z</time>
      </trkpt>
      <trkpt lat="50.48882" lon="3.43799">
        <ele>21.845517</ele>
        <time>2021-05-21T23:52:54.567Z</time>
      </trkpt>
      <trkpt lat="50.48907" lon="3.43837">
        <ele>21.67662</ele>
        <time>2021-05-21T23:52:59.843Z</time>
      </trkpt>
      <trkpt lat="50.48918" lon="3.43854">
        <ele>21.598482</ele>
        <time>2021-05-21T23:53:02.148Z</time>
      </trkpt>
      <trkpt lat="50.48944" lon="3.43891">
        <ele>21.432047</ele>
        <time>2021-05-21T23:53:06.804Z</time>
      </trkpt>
      <trkpt lat="50.48953" lon="3.43902">
        <ele>21.374128</ele>
        <time>2021-05-21T23:53:08.355Z</time>
      </trkpt>
      <trkpt lat="50.48981" lon="3.43937">
        <ele>21.199796</ele>
        <time>2021-05-21T23:53:12.852Z</time>
      </trkpt>
      <trkpt lat="50.48998" lon="3.43966">
        <ele>21.079565</ele>
        <time>2021-05-21T23:53:15.929Z</time>
      </trkpt>
      <trkpt lat="50.49034" lon="3.44057">
        <ele>20.494835</ele>
        <time>2021-05-21T23:53:24.197Z</time>
      </trkpt>
      <trkpt lat="50.49043" lon="3.44079">
        <ele>20.333768</ele>
        <time>2021-05-21T23:53:26.203Z</time>
      </trkpt>
      <trkpt lat="50.49109" lon="3.44183">
        <ele>19.431151</ele>
        <time>2021-05-21T23:53:37.565Z</time>
      </trkpt>
      <trkpt lat="50.49138" lon="3.44236">
        <ele>19.155008</ele>
        <time>2021-05-21T23:53:43.234Z</time>
      </trkpt>
      <trkpt lat="50.49167" lon="3.44324">
        <ele>18.904798</ele>
        <time>2021-05-21T23:53:51.672Z</time>
      </trkpt>
      <trkpt lat="50.49219" lon="3.44434">
        <ele>18.557538</ele>
        <time>2021-05-21T23:54:04.106Z</time>
      </trkpt>
      <trkpt lat="50.49227" lon="3.44464">
        <ele>18.51416</ele>
        <time>2021-05-21T23:54:07.187Z</time>
      </trkpt>
      <trkpt lat="50.49237" lon="3.44565">
        <ele>18.395968</ele>
        <time>2021-05-21T23:54:16.611Z</time>
      </trkpt>
      <trkpt lat="50.49254" lon="3.44618">
        <ele>18.326813</ele>
        <time>2021-05-21T23:54:22.043Z</time>
      </trkpt>
      <trkpt lat="50.49286" lon="3.44688">
        <ele>18.227235</ele>
        <time>2021-05-21T23:54:29.625Z</time>
      </trkpt>
      <trkpt lat="50.49301" lon="3.44709">
        <ele>18.195191</ele>
        <time>2021-05-21T23:54:32.407Z</time>
      </trkpt>
      <trkpt lat="50.49336" lon="3.44729">
        <ele>18.137442</ele>
        <time>2021-05-21T23:54:37.438Z</time>
      </trkpt>
      <trkpt lat="50.4934" lon="3.44731">
        <ele>18.131325</ele>
        <time>2021-05-21T23:54:37.934Z</time>
      </trkpt>
      <trkpt lat="50.49353" lon="3.4475">
        <ele>18.104264</ele>
        <time>2021-05-21T23:54:40.296Z</time>
      </trkpt>
      <trkpt lat="50.49359" lon="3.44758">
        <ele>18.091417</ele>
        <time>2021-05-21T23:54:41.482Z</time>
      </trkpt>
      <trkpt lat="50.49366" lon="3.44748">
        <ele>18.077927</ele>
        <time>2021-05-21T23:54:42.686Z</time>
      </trkpt>
      <trkpt lat="50.49368" lon="3.44744">
        <ele>18.072865</ele>
        <time>2021-05-21T23:54:43.149Z</time>
      </trkpt>
      <trkpt lat="50.4942" lon="3.44663">
        <ele>17.95986</ele>
        <time>2021-05-21T23:54:54.187Z</time>
      </trkpt>
      <trkpt lat="50.49426" lon="3.44654">
        <ele>17.947109</ele>
        <time>2021-05-21T23:54:55.297Z</time>
      </trkpt>
      <trkpt lat="50.49477" lon="3.44573">
        <ele>18.050397</ele>
        <time>2021-05-21T23:55:07.033Z</time>
      </trkpt>
      <trkpt lat="50.49491" lon="3.44561">
        <ele>18.07405</ele>
        <time>2021-05-21T23:55:09.937Z</time>
      </trkpt>
      <trkpt lat="50.49544" lon="3.44521">
        <ele>18.161101</ele>
        <time>2021-05-21T23:55:19.023Z</time>
      </trkpt>
      <trkpt lat="50.49562" lon="3.44503">
        <ele>18.192967</ele>
        <time>2021-05-21T23:55:22.334Z</time>
      </trkpt>
      <trkpt lat="50.4959" lon="3.44475">
        <ele>18.073487</ele>
        <time>2021-05-21T23:55:27.002Z</time>
      </trkpt>
      <trkpt lat="50.49648" lon="3.44404">
        <ele>17.56326</ele>
        <time>2021-05-21T23:55:36.733Z</time>
      </trkpt>
      <trkpt lat="50.49663" lon="3.44393">
        <ele>17.450487</ele>
        <time>2021-05-21T23:55:38.765Z</time>
      </trkpt>
      <trkpt lat="50.49669" lon="3.44396">
        <ele>17.409148</ele>
        <time>2021-05-21T23:55:39.530Z</time>
      </trkpt>
      <trkpt lat="50.49672" lon="3.44401">
        <ele>17.378008</ele>
        <time>2021-05-21T23:55:40.099Z</time>
      </trkpt>
      <trkpt lat="50.49674" lon="3.44405">
        <ele>17.355914</ele>
        <time>2021-05-21T23:55:40.429Z</time>
      </trkpt>
      <trkpt lat="50.49687" lon="3.44433">
        <ele>17.20381</ele>
        <time>2021-05-21T23:55:43.189Z</time>
      </trkpt>
      <trkpt lat="50.49735" lon="3.44569">
        <ele>16.454251</ele>
        <time>2021-05-21T23:55:54.978Z</time>
      </trkpt>
      <trkpt lat="50.49754" lon="3.44626">
        <ele>16.129954</ele>
        <time>2021-05-21T23:56:00.038Z</time>
      </trkpt>
      <trkpt lat="50.49776" lon="3.4469">
        <ele>15.764305</ele>
        <time>2021-05-21T23:56:06.201Z</time>
      </trkpt>
      <trkpt lat="50.49798" lon="3.44759">
        <ele>15.630459</ele>
        <time>2021-05-21T23:56:12.975Z</time>
      </trkpt>
      <trkpt lat="50.49799" lon="3.44762">
        <ele>15.638161</ele>
        <time>2021-05-21T23:56:13.363Z</time>
      </trkpt>
      <trkpt lat="50.49844" lon="3.44889">
        <ele>15.985778</ele>
        <time>2021-05-21T23:56:27.814Z</time>
      </trkpt>
      <trkpt lat="50.49851" lon="3.44909">
        <ele>16.04258</ele>
        <time>2021-05-21T23:56:30.558Z</time>
      </trkpt>
      <trkpt lat="50.49864" lon="3.44939">
        <ele>16.129242</ele>
        <time>2021-05-21T23:56:34.721Z</time>
      </trkpt>
      <trkpt lat="50.49867" lon="3.44946">
        <ele>16.14929</ele>
        <time>2021-05-21T23:56:35.746Z</time>
      </trkpt>
      <trkpt lat="50.49874" lon="3.44964">
        <ele>16.200315</ele>
        <time>2021-05-21T23:56:38.421Z</time>
      </trkpt>
      <trkpt lat="50.49935" lon="3.45106">
        <ele>16.917668</ele>
        <time>2021-05-21T23:56:59.154Z</time>
      </trkpt>
      <trkpt lat="50.49943" lon="3.45125">
        <ele>17.019031</ele>
        <time>2021-05-21T23:57:01.701Z</time>
      </trkpt>
      <trkpt lat="50.49958" lon="3.45159">
        <ele>17.19593</ele>
        <time>2021-05-21T23:57:05.823Z</time>
      </trkpt>
      <trkpt lat="50.49974" lon="3.45177">
        <ele>17.331853</ele>
        <time>2021-05-21T23:57:08.976Z</time>
      </trkpt>
      <trkpt lat="50.49999" lon="3.45188">
        <ele>17.441888</ele>
        <time>2021-05-21T23:57:12.618Z</time>
      </trkpt>
      <trkpt lat="50.50005" lon="3.45189">
        <ele>17.437833</ele>
        <time>2021-05-21T23:57:13.654Z</time>
      </trkpt>
      <trkpt lat="50.50044" lon="3.45199">
        <ele>17.412598</ele>
        <time>2021-05-21T23:57:19.809Z</time>
      </trkpt>
      <trkpt lat="50.50051" lon="3.45202">
        <ele>17.408124</ele>
        <time>2021-05-21T23:57:20.863Z</time>
      </trkpt>
      <trkpt lat="50.50052" lon="3.45203">
        <ele>17.407065</ele>
        <time>2021-05-21T23:57:21.118Z</time>
      </trkpt>
      <trkpt lat="50.50084" lon="3.45223">
        <ele>17.385029</ele>
        <time>2021-05-21T23:57:26.378Z</time>
      </trkpt>
      <trkpt lat="50.50092" lon="3.45227">
        <ele>17.379632</ele>
        <time>2021-05-21T23:57:27.591Z</time>
      </trkpt>
      <trkpt lat="50.5013" lon="3.45249">
        <ele>17.354062</ele>
        <time>2021-05-21T23:57:33.078Z</time>
      </trkpt>
      <trkpt lat="50.50142" lon="3.45258">
        <ele>17.34564</ele>
        <time>2021-05-21T23:57:34.969Z</time>
      </trkpt>
      <trkpt lat="50.50193" lon="3.45294">
        <ele>17.332409</ele>
        <time>2021-05-21T23:57:42.523Z</time>
      </trkpt>
      <trkpt lat="50.50229" lon="3.45322">
        <ele>17.332409</ele>
        <time>2021-05-21T23:57:48.247Z</time>
      </trkpt>
      <trkpt lat="50.5031" lon="3.45386">
        <ele>17.332409</ele>
        <time>2021-05-21T23:58:03.835Z</time>
      </trkpt>
      <trkpt lat="50.50341" lon="3.45413">
        <ele>17.332409</ele>
        <time>2021-05-21T23:58:09.408Z</time>
      </trkpt>
      <trkpt lat="50.50355" lon="3.45425">
        <ele>17.332409</ele>
        <time>2021-05-21T23:58:11.818Z</time>
      </trkpt>
    </trkseg>
  </trk>
</gpx>